Wetterdaten: aktuell Sonntag, 21.01.2024 16:30
Datum Zeit Temp. I. Temp. A. Bo.Tem.-50cm Bo.temp. -1m Lufttem. +1m Temp. A. min Temp. A. max Bl. Temp Bo.Temp +5cm BoTemp -5 cm Botemp -10cm Botemp -20cm Feuchte I. Feuchte A. Luftfeu. +1m BlattFeu S BlattFeu N Bo.Feu. -5cm Bofeu -10 cm Bofeu - 20cm Bofeu -50cm Luftdruck Regen Wind Richtung Richtung Sonnenschein T Regen ET UV Solar Taupunkt Windchill Windben Empfang
21.01.2024 16:30 1,1 C -1,2 C 2,2 C 3,9 C -1,7 C -1,2 C -1,2 C -2,8 C -2,8 C 0,0 C 0,0 C 1,1 C 63 % 60 % 49 % 0 lf 3 lf 200 cb 118 cb 30 cb 13 cb 1028,3 hPa 0,0 mm 4,8 km/h (1 Bft) S-SW 202 0 min 0 min 0,000 mm 0,0 UV-I 0 W/m -7,9 C -2,9 C 11,3 km/h (2 Bft) 100 %
21.01.2024 16:25 1,1 C -1,2 C 2,2 C 3,9 C -1,7 C -1,4 C -1,2 C -2,8 C -2,8 C 0,0 C 0,0 C 1,1 C 63 % 60 % 49 % 0 lf 3 lf 200 cb 119 cb 30 cb 13 cb 1028,2 hPa 0,0 mm 8,0 km/h (2 Bft) S-SO 157 0 min 0 min 0,000 mm 0,0 UV-I 1 W/m -7,9 C -4,1 C 19,3 km/h (3 Bft) 100 %
21.01.2024 16:20 1,1 C -1,4 C 2,2 C 3,9 C -1,7 C -1,5 C -1,4 C -2,8 C -2,8 C 0,0 C 0,0 C 1,1 C 63 % 62 % 49 % 0 lf 3 lf 200 cb 119 cb 30 cb 13 cb 1028,2 hPa 0,0 mm 11,3 km/h (2 Bft) O-SO 112 0 min 0 min 0,000 mm 0,0 UV-I 6 W/m -7,7 C -5,3 C 29,0 km/h (5 Bft) 100 %
21.01.2024 16:15 1,1 C -1,4 C 2,2 C 3,9 C -1,7 C -1,4 C -1,3 C -2,2 C -2,2 C 0,0 C 0,0 C 1,1 C 63 % 63 % 50 % 0 lf 3 lf 200 cb 119 cb 30 cb 13 cb 1028,1 hPa 0,0 mm 14,5 km/h (3 Bft) S-SW 202 0 min 0 min 0,000 mm 0,0 UV-I 16 W/m -7,5 C -6,0 C 30,6 km/h (5 Bft) 100 %
21.01.2024 16:10 1,1 C -1,3 C 2,2 C 3,9 C -1,1 C -1,3 C -1,3 C -2,2 C -2,2 C 0,0 C 0,0 C 1,1 C 63 % 64 % 50 % 0 lf 3 lf 200 cb 119 cb 30 cb 13 cb 1027,4 hPa 0,0 mm 24,1 km/h (4 Bft) S 180 0 min 0 min 0,000 mm 0,0 UV-I 32 W/m -7,2 C -7,5 C 48,3 km/h (6 Bft) 100 %
21.01.2024 16:05 1,1 C -1,4 C 2,2 C 3,9 C -1,7 C -1,6 C -1,4 C -2,2 C -2,2 C 0,0 C 0,0 C 1,1 C 63 % 64 % 50 % 0 lf 3 lf 200 cb 120 cb 30 cb 13 cb 1026,9 hPa 0,0 mm 24,1 km/h (4 Bft) S-SO 157 0 min 0 min 0,000 mm 0,0 UV-I 36 W/m -7,3 C -7,6 C 45,1 km/h (6 Bft) 99 %
21.01.2024 16:00 1,1 C -1,6 C 2,2 C 3,9 C -1,7 C -1,8 C -1,6 C -2,2 C -2,2 C 0,0 C 0,0 C 1,1 C 63 % 65 % 51 % 0 lf 3 lf 200 cb 120 cb 30 cb 13 cb 1027,0 hPa 0,0 mm 24,1 km/h (4 Bft) S-SO 157 0 min 0 min 0,076 mm 0,0 UV-I 34 W/m -7,3 C -7,8 C 43,5 km/h (6 Bft) 98 %
21.01.2024 15:55 1,1 C -1,8 C 2,2 C 3,9 C -1,7 C -2,0 C -1,8 C -2,2 C -2,2 C 0,0 C 0,0 C 1,1 C 63 % 66 % 51 % 0 lf 3 lf 200 cb 121 cb 30 cb 13 cb 1026,8 hPa 0,0 mm 29,0 km/h (5 Bft) S-SO 157 0 min 0 min 0,000 mm 0,0 UV-I 44 W/m -7,3 C -8,7 C 56,3 km/h (7 Bft) 100 %
21.01.2024 15:50 1,1 C -2,0 C 2,2 C 3,9 C -2,2 C -2,0 C -1,9 C -2,2 C -2,2 C 0,0 C 0,0 C 1,1 C 63 % 67 % 52 % 0 lf 2 lf 200 cb 121 cb 30 cb 13 cb 1026,6 hPa 0,0 mm 29,0 km/h (5 Bft) S-SO 157 0 min 0 min 0,000 mm 0,0 UV-I 55 W/m -7,3 C -9,0 C 49,9 km/h (7 Bft) 98 %
21.01.2024 15:45 1,1 C -1,9 C 2,2 C 3,9 C -2,2 C -1,9 C -1,9 C -2,2 C -2,2 C 0,0 C 0,0 C 1,1 C 63 % 66 % 52 % 0 lf 2 lf 200 cb 121 cb 30 cb 13 cb 1026,3 hPa 0,0 mm 32,2 km/h (5 Bft) S-SO 157 0 min 0 min 0,000 mm 0,0 UV-I 59 W/m -7,4 C -9,2 C 51,5 km/h (7 Bft) 100 %
21.01.2024 15:40 1,1 C -1,8 C 2,2 C 3,9 C -2,2 C -1,9 C -1,7 C -2,2 C -2,2 C 0,0 C 0,0 C 1,1 C 63 % 66 % 51 % 0 lf 3 lf 200 cb 122 cb 30 cb 13 cb 1026,5 hPa 0,0 mm 30,6 km/h (5 Bft) S-SO 157 0 min 0 min 0,000 mm 0,0 UV-I 51 W/m -7,3 C -8,9 C 51,5 km/h (7 Bft) 99 %
21.01.2024 15:35 1,1 C -1,7 C 2,2 C 3,9 C -1,7 C -1,7 C -1,5 C -2,2 C -2,2 C 0,0 C 0,0 C 1,1 C 63 % 65 % 51 % 0 lf 2 lf 200 cb 122 cb 30 cb 13 cb 1026,4 hPa 0,0 mm 33,8 km/h (5 Bft) S-SO 157 0 min 0 min 0,000 mm 0,0 UV-I 46 W/m -7,4 C -9,1 C 53,1 km/h (7 Bft) 96 %
21.01.2024 15:30 1,1 C -1,5 C 2,2 C 3,9 C -1,7 C -1,5 C -1,3 C -1,7 C -1,7 C 0,0 C 0,0 C 1,1 C 64 % 64 % 50 % 0 lf 2 lf 200 cb 123 cb 30 cb 13 cb 1026,4 hPa 0,0 mm 29,0 km/h (5 Bft) S-SO 157 0 min 0 min 0,000 mm 0,0 UV-I 54 W/m -7,4 C -8,3 C 49,9 km/h (7 Bft) 99 %
21.01.2024 15:25 1,1 C -1,3 C 2,2 C 3,9 C -1,1 C -1,3 C -1,2 C -1,7 C -1,7 C 0,0 C 0,0 C 1,1 C 64 % 63 % 49 % 0 lf 3 lf 200 cb 123 cb 30 cb 13 cb 1026,7 hPa 0,0 mm 22,5 km/h (4 Bft) S-SO 157 0 min 0 min 0,000 mm 0,0 UV-I 62 W/m -7,4 C -7,2 C 40,2 km/h (6 Bft) 100 %
21.01.2024 15:20 1,1 C -1,2 C 2,2 C 3,9 C -1,1 C -1,2 C -1,0 C -1,7 C -1,7 C 0,0 C 0,0 C 1,1 C 64 % 61 % 49 % 0 lf 2 lf 200 cb 123 cb 30 cb 13 cb 1026,8 hPa 0,0 mm 19,3 km/h (3 Bft) S-SO 157 0 min 0 min 0,000 mm 0,0 UV-I 62 W/m -7,7 C -6,6 C 35,4 km/h (5 Bft) 100 %
21.01.2024 15:15 1,1 C -0,9 C 2,2 C 3,9 C -1,1 C -0,9 C -0,5 C -1,7 C -1,7 C 0,0 C 0,0 C 1,1 C 64 % 60 % 48 % 0 lf 2 lf 200 cb 123 cb 30 cb 13 cb 1026,9 hPa 0,0 mm 16,1 km/h (3 Bft) SO 135 0 min 0 min 0,000 mm 0,0 UV-I 68 W/m -7,7 C -5,7 C 27,4 km/h (5 Bft) 100 %
21.01.2024 15:10 1,1 C -0,5 C 2,2 C 3,9 C -0,6 C -0,5 C -0,4 C -1,1 C -1,1 C 0,0 C 0,0 C 1,1 C 64 % 57 % 46 % 0 lf 3 lf 200 cb 124 cb 30 cb 13 cb 1027,2 hPa 0,0 mm 16,1 km/h (3 Bft) O 90 0 min 0 min 0,000 mm 0,0 UV-I 90 W/m -7,9 C -5,2 C 25,7 km/h (4 Bft) 100 %
21.01.2024 15:05 1,1 C -0,4 C 2,2 C 3,9 C -0,6 C -0,5 C -0,4 C -1,1 C -1,1 C 0,0 C 0,0 C 1,1 C 64 % 56 % 46 % 0 lf 3 lf 200 cb 124 cb 30 cb 13 cb 1027,5 hPa 0,0 mm 17,7 km/h (3 Bft) O-SO 112 5 min 0 min 0,000 mm 0,0 UV-I 103 W/m -8,1 C -5,4 C 27,4 km/h (5 Bft) 100 %
21.01.2024 15:00 1,1 C -0,5 C 2,2 C 3,9 C -0,6 C -0,6 C -0,4 C -1,1 C -1,1 C 0,0 C 0,0 C 1,1 C 64 % 56 % 45 % 0 lf 3 lf 200 cb 124 cb 30 cb 13 cb 1027,5 hPa 0,0 mm 11,3 km/h (2 Bft) O-SO 112 0 min 0 min 0,076 mm 0,0 UV-I 93 W/m -8,2 C -4,2 C 25,7 km/h (4 Bft) 100 %
21.01.2024 14:55 1,1 C -0,4 C 2,2 C 3,9 C -0,6 C -0,4 C -0,3 C -1,1 C -1,1 C 0,0 C 0,0 C 1,1 C 63 % 55 % 44 % 0 lf 3 lf 200 cb 125 cb 30 cb 13 cb 1027,7 hPa 0,0 mm 14,5 km/h (3 Bft) O-SO 112 0 min 0 min 0,000 mm 0,0 UV-I 80 W/m -8,3 C -4,8 C 29,0 km/h (5 Bft) 100 %
21.01.2024 14:50 1,1 C -0,4 C 2,2 C 3,9 C -0,6 C -0,6 C -0,4 C -1,1 C -1,1 C 0,0 C 0,0 C 1,1 C 63 % 56 % 44 % 0 lf 3 lf 200 cb 125 cb 30 cb 13 cb 1027,7 hPa 0,0 mm 9,7 km/h (2 Bft) N-NO 22 0 min 0 min 0,000 mm 0,0 UV-I 73 W/m -8,1 C -3,7 C 25,7 km/h (4 Bft) 100 %
21.01.2024 14:45 1,1 C -0,5 C 2,2 C 3,9 C -0,6 C -0,6 C -0,5 C -1,1 C -1,1 C 0,0 C 0,0 C 1,1 C 63 % 57 % 46 % 0 lf 3 lf 200 cb 126 cb 30 cb 13 cb 1027,8 hPa 0,0 mm 9,7 km/h (2 Bft) S-SW 202 0 min 0 min 0,000 mm 0,0 UV-I 72 W/m -7,9 C -3,8 C 24,1 km/h (4 Bft) 100 %
21.01.2024 14:40 1,1 C -0,5 C 2,2 C 3,9 C -0,6 C -0,5 C -0,4 C -1,1 C -1,1 C 0,0 C 0,0 C 1,1 C 63 % 57 % 45 % 0 lf 3 lf 200 cb 126 cb 30 cb 13 cb 1027,6 hPa 0,0 mm 16,1 km/h (3 Bft) S 180 0 min 0 min 0,000 mm 0,0 UV-I 77 W/m -7,9 C -5,2 C 43,5 km/h (6 Bft) 98 %
21.01.2024 14:35 1,0 C -0,4 C 2,2 C 3,9 C -0,6 C -0,5 C -0,4 C -1,1 C -1,1 C 0,0 C 0,0 C 1,1 C 63 % 56 % 44 % 0 lf 3 lf 200 cb 126 cb 30 cb 13 cb 1027,5 hPa 0,0 mm 14,5 km/h (3 Bft) S 180 0 min 0 min 0,000 mm 0,0 UV-I 86 W/m -8,1 C -4,8 C 33,8 km/h (5 Bft) 96 %
21.01.2024 14:30 1,1 C -0,4 C 2,2 C 3,9 C -0,6 C -0,4 C -0,4 C -1,1 C -1,1 C 0,0 C 0,0 C 1,1 C 63 % 56 % 44 % 0 lf 3 lf 200 cb 126 cb 30 cb 13 cb 1027,5 hPa 0,0 mm 17,7 km/h (3 Bft) S 180 0 min 0 min 0,000 mm 0,0 UV-I 86 W/m -8,1 C -5,4 C 38,6 km/h (6 Bft) 96 %
21.01.2024 14:25 1,1 C -0,4 C 2,2 C 3,9 C -0,6 C -0,4 C -0,2 C -1,1 C -1,1 C 0,0 C 0,0 C 1,1 C 63 % 57 % 45 % 0 lf 3 lf 200 cb 127 cb 30 cb 13 cb 1027,4 hPa 0,0 mm 17,7 km/h (3 Bft) S-SO 157 0 min 0 min 0,000 mm 0,0 UV-I 85 W/m -7,9 C -5,4 C 37,0 km/h (5 Bft) 97 %
21.01.2024 14:20 1,0 C -0,2 C 2,2 C 3,9 C -0,6 C -0,2 C 0,1 C -0,6 C -0,6 C 0,0 C 0,0 C 1,1 C 63 % 56 % 45 % 0 lf 3 lf 200 cb 127 cb 30 cb 13 cb 1027,2 hPa 0,0 mm 19,3 km/h (3 Bft) SO 135 0 min 0 min 0,000 mm 0,0 UV-I 91 W/m -7,9 C -5,4 C 38,6 km/h (6 Bft) 99 %
21.01.2024 14:15 1,0 C 0,1 C 2,2 C 3,9 C 0,0 C 0,1 C 0,2 C -0,6 C -0,6 C 0,0 C 0,0 C 1,1 C 63 % 54 % 43 % 0 lf 3 lf 200 cb 128 cb 30 cb 13 cb 1027,4 hPa 0,0 mm 19,3 km/h (3 Bft) SO 135 0 min 0 min 0,000 mm 0,0 UV-I 92 W/m -8,1 C -5,0 C 33,8 km/h (5 Bft) 100 %
21.01.2024 14:10 1,0 C 0,2 C 2,2 C 3,9 C 0,0 C 0,1 C 0,2 C -0,6 C -0,6 C 0,0 C 0,0 C 1,1 C 63 % 53 % 42 % 0 lf 5 lf 200 cb 128 cb 30 cb 13 cb 1027,5 hPa 0,0 mm 16,1 km/h (3 Bft) SO 135 0 min 0 min 0,000 mm 0,0 UV-I 91 W/m -8,2 C -4,4 C 27,4 km/h (5 Bft) 99 %
21.01.2024 14:05 1,1 C 0,2 C 2,2 C 3,9 C 0,0 C 0,2 C 0,5 C -0,6 C -0,6 C 0,0 C 0,0 C 1,1 C 63 % 53 % 43 % 0 lf 6 lf 200 cb 128 cb 30 cb 13 cb 1027,7 hPa 0,0 mm 16,1 km/h (3 Bft) O 90 0 min 0 min 0,000 mm 0,0 UV-I 101 W/m -8,2 C -4,4 C 33,8 km/h (5 Bft) 100 %
21.01.2024 14:00 1,0 C 0,5 C 2,2 C 3,9 C 0,6 C 0,5 C 0,6 C -0,6 C -0,6 C 0,0 C 0,0 C 1,1 C 63 % 52 % 42 % 0 lf 11 lf 200 cb 129 cb 30 cb 13 cb 1028,0 hPa 0,0 mm 11,3 km/h (2 Bft) O-SO 112 5 min 0 min 0,102 mm 0,0 UV-I 120 W/m -8,2 C -3,0 C 29,0 km/h (5 Bft) 100 %
21.01.2024 13:55 1,1 C 0,6 C 2,2 C 3,9 C 0,6 C 0,6 C 0,6 C -0,6 C -0,6 C 0,0 C 0,0 C 1,1 C 63 % 51 % 40 % 0 lf 10 lf 200 cb 129 cb 30 cb 13 cb 1028,2 hPa 0,0 mm 11,3 km/h (2 Bft) SO 135 5 min 0 min 0,000 mm 0,0 UV-I 139 W/m -8,3 C -2,9 C 30,6 km/h (5 Bft) 100 %
21.01.2024 13:50 1,0 C 0,6 C 2,2 C 3,9 C 0,6 C 0,6 C 0,6 C -0,6 C -0,6 C 0,0 C 0,0 C 1,1 C 63 % 51 % 40 % 0 lf 11 lf 200 cb 129 cb 30 cb 13 cb 1028,3 hPa 0,0 mm 6,4 km/h (2 Bft) O-SO 112 5 min 0 min 0,000 mm 0,0 UV-I 144 W/m -8,3 C -1,5 C 17,7 km/h (3 Bft) 100 %
21.01.2024 13:45 1,0 C 0,6 C 2,2 C 3,9 C 0,6 C 0,6 C 0,6 C -0,6 C -0,6 C 0,0 C 0,0 C 1,1 C 63 % 52 % 42 % 0 lf 10 lf 200 cb 129 cb 30 cb 13 cb 1028,3 hPa 0,0 mm 9,7 km/h (2 Bft) O-SO 112 5 min 0 min 0,000 mm 0,0 UV-I 147 W/m -8,1 C -2,5 C 22,5 km/h (4 Bft) 98 %
21.01.2024 13:40 1,0 C 0,6 C 2,2 C 3,9 C 0,6 C 0,4 C 0,6 C -0,6 C -0,6 C 0,0 C 0,0 C 1,1 C 63 % 50 % 41 % 0 lf 6 lf 200 cb 129 cb 30 cb 13 cb 1028,4 hPa 0,0 mm 8,0 km/h (2 Bft) S-SO 157 5 min 0 min 0,000 mm 0,0 UV-I 150 W/m -8,6 C -2,0 C 17,7 km/h (3 Bft) 100 %
21.01.2024 13:35 1,0 C 0,4 C 2,2 C 3,9 C 0,0 C 0,3 C 0,4 C -0,6 C -0,6 C 0,0 C 0,0 C 1,1 C 63 % 53 % 44 % 0 lf 7 lf 200 cb 130 cb 30 cb 13 cb 1028,4 hPa 0,0 mm 11,3 km/h (2 Bft) S-SO 157 5 min 0 min 0,000 mm 0,0 UV-I 151 W/m -8,0 C -3,2 C 24,1 km/h (4 Bft) 98 %
21.01.2024 13:30 1,0 C 0,3 C 2,2 C 3,9 C 0,0 C 0,2 C 0,3 C -0,6 C -0,6 C 0,0 C 0,0 C 1,1 C 63 % 54 % 43 % 0 lf 4 lf 200 cb 130 cb 30 cb 13 cb 1028,3 hPa 0,0 mm 16,1 km/h (3 Bft) SO 135 5 min 0 min 0,000 mm 0,0 UV-I 146 W/m -7,9 C -4,2 C 35,4 km/h (5 Bft) 96 %
21.01.2024 13:25 1,0 C 0,2 C 2,2 C 3,9 C 0,0 C 0,1 C 0,2 C -0,6 C -0,6 C 0,0 C 0,0 C 1,1 C 63 % 55 % 44 % 0 lf 3 lf 200 cb 131 cb 30 cb 13 cb 1028,1 hPa 0,0 mm 19,3 km/h (3 Bft) SO 135 5 min 0 min 0,000 mm 0,0 UV-I 133 W/m -7,8 C -4,9 C 33,8 km/h (5 Bft) 94 %
21.01.2024 13:20 1,0 C 0,0 C 2,2 C 3,9 C 0,0 C -0,2 C 0,0 C -0,6 C -0,6 C 0,0 C 0,0 C 1,1 C 63 % 56 % 45 % 0 lf 2 lf 200 cb 131 cb 30 cb 13 cb 1028,1 hPa 0,0 mm 22,5 km/h (4 Bft) SO 135 5 min 0 min 0,000 mm 0,0 UV-I 124 W/m -7,7 C -5,6 C 40,2 km/h (6 Bft) 95 %
21.01.2024 13:15 1,0 C -0,2 C 2,2 C 3,9 C -0,6 C -0,3 C -0,2 C -0,6 C -0,6 C 0,0 C 0,0 C 1,1 C 63 % 57 % 46 % 0 lf 2 lf 200 cb 131 cb 30 cb 13 cb 1028,2 hPa 0,0 mm 20,9 km/h (4 Bft) SO 135 5 min 0 min 0,000 mm 0,0 UV-I 127 W/m -7,7 C -5,6 C 45,1 km/h (6 Bft) 91 %
21.01.2024 13:10 1,0 C -0,3 C 2,2 C 3,9 C -0,6 C -0,4 C -0,3 C -0,6 C -0,6 C 0,0 C 0,0 C 1,1 C 63 % 59 % 47 % 0 lf 3 lf 200 cb 132 cb 30 cb 13 cb 1028,2 hPa 0,0 mm 17,7 km/h (3 Bft) SO 135 5 min 0 min 0,000 mm 0,0 UV-I 138 W/m -7,3 C -5,3 C 35,4 km/h (5 Bft) 96 %
21.01.2024 13:05 1,0 C -0,4 C 2,2 C 3,9 C -0,6 C -0,4 C -0,3 C -0,6 C -0,6 C 0,0 C 0,0 C 1,1 C 63 % 58 % 47 % 0 lf 2 lf 200 cb 132 cb 30 cb 13 cb 1028,1 hPa 0,0 mm 20,9 km/h (4 Bft) SO 135 5 min 0 min 0,000 mm 0,0 UV-I 148 W/m -7,6 C -5,9 C 40,2 km/h (6 Bft) 99 %
21.01.2024 13:00 1,0 C -0,4 C 2,2 C 3,9 C -0,6 C -0,4 C -0,4 C -0,6 C -0,6 C 0,0 C 0,0 C 1,1 C 63 % 58 % 47 % 0 lf 2 lf 200 cb 132 cb 30 cb 13 cb 1028,4 hPa 0,0 mm 17,7 km/h (3 Bft) SO 135 5 min 0 min 0,102 mm 0,0 UV-I 148 W/m -7,6 C -5,4 C 30,6 km/h (5 Bft) 98 %
21.01.2024 12:55 1,0 C -0,4 C 2,2 C 3,9 C -0,6 C -0,4 C -0,2 C -0,6 C -0,6 C 0,0 C 0,0 C 1,1 C 63 % 58 % 46 % 0 lf 3 lf 200 cb 132 cb 30 cb 13 cb 1028,3 hPa 0,0 mm 19,3 km/h (3 Bft) SO 135 5 min 0 min 0,000 mm 0,0 UV-I 144 W/m -7,6 C -5,6 C 35,4 km/h (5 Bft) 96 %
21.01.2024 12:50 1,0 C -0,2 C 2,2 C 3,9 C -0,6 C -0,2 C -0,1 C -0,6 C -0,6 C 0,0 C 0,0 C 1,1 C 63 % 58 % 46 % 0 lf 3 lf 200 cb 132 cb 30 cb 13 cb 1028,4 hPa 0,0 mm 19,3 km/h (3 Bft) SO 135 5 min 0 min 0,000 mm 0,0 UV-I 146 W/m -7,4 C -5,4 C 32,2 km/h (5 Bft) 98 %
21.01.2024 12:45 1,0 C -0,2 C 2,2 C 3,9 C -0,6 C -0,2 C -0,1 C 0,0 C 0,0 C 0,0 C 0,0 C 1,1 C 63 % 58 % 47 % 0 lf 3 lf 200 cb 132 cb 30 cb 13 cb 1028,4 hPa 0,0 mm 14,5 km/h (3 Bft) SO 135 5 min 0 min 0,000 mm 0,0 UV-I 152 W/m -7,4 C -4,6 C 29,0 km/h (5 Bft) 97 %
21.01.2024 12:40 1,0 C -0,1 C 2,2 C 3,9 C 0,0 C -0,1 C 0,1 C 0,0 C 0,0 C 0,0 C 0,0 C 1,1 C 63 % 58 % 46 % 0 lf 3 lf 200 cb 133 cb 30 cb 13 cb 1028,5 hPa 0,0 mm 16,1 km/h (3 Bft) SO 135 5 min 0 min 0,000 mm 0,0 UV-I 154 W/m -7,3 C -4,7 C 29,0 km/h (5 Bft) 100 %
21.01.2024 12:35 1,0 C 0,1 C 2,2 C 3,9 C 0,0 C 0,1 C 0,4 C 0,0 C 0,0 C 0,0 C 0,0 C 1,1 C 63 % 56 % 45 % 0 lf 3 lf 200 cb 133 cb 30 cb 13 cb 1028,5 hPa 0,0 mm 16,1 km/h (3 Bft) SO 135 5 min 0 min 0,000 mm 0,0 UV-I 157 W/m -7,6 C -4,5 C 25,7 km/h (4 Bft) 100 %
21.01.2024 12:30 1,0 C 0,4 C 2,2 C 3,9 C 0,0 C 0,4 C 0,6 C 0,0 C 0,0 C 0,0 C 0,0 C 1,1 C 63 % 53 % 42 % 0 lf 3 lf 200 cb 133 cb 30 cb 13 cb 1028,6 hPa 0,0 mm 14,5 km/h (3 Bft) SO 135 5 min 0 min 0,000 mm 0,0 UV-I 158 W/m -8,0 C -3,8 C 30,6 km/h (5 Bft) 100 %
21.01.2024 12:25 1,0 C 0,6 C 2,2 C 3,9 C 0,6 C 0,6 C 0,7 C 0,0 C 0,0 C 0,0 C 0,0 C 1,1 C 63 % 53 % 43 % 0 lf 3 lf 200 cb 133 cb 30 cb 13 cb 1028,8 hPa 0,0 mm 14,5 km/h (3 Bft) SO 135 5 min 0 min 0,000 mm 0,3 UV-I 164 W/m -7,9 C -3,6 C 27,4 km/h (5 Bft) 100 %
21.01.2024 12:20 1,0 C 0,7 C 2,2 C 3,9 C 0,6 C 0,7 C 0,9 C 0,0 C 0,0 C 0,0 C 0,0 C 1,1 C 63 % 51 % 41 % 0 lf 3 lf 200 cb 134 cb 30 cb 13 cb 1028,7 hPa 0,0 mm 17,7 km/h (3 Bft) SO 135 5 min 0 min 0,000 mm 0,5 UV-I 178 W/m -8,3 C -4,0 C 37,0 km/h (5 Bft) 100 %
21.01.2024 12:15 1,0 C 0,8 C 2,2 C 3,9 C 0,6 C 0,7 C 0,8 C 0,0 C 0,0 C 0,0 C 0,0 C 1,1 C 63 % 50 % 39 % 0 lf 4 lf 200 cb 134 cb 30 cb 13 cb 1028,9 hPa 0,0 mm 17,7 km/h (3 Bft) SO 135 5 min 0 min 0,000 mm 0,5 UV-I 195 W/m -8,4 C -3,9 C 37,0 km/h (5 Bft) 100 %
21.01.2024 12:10 1,0 C 0,7 C 2,2 C 3,9 C 0,6 C 0,6 C 0,7 C 0,0 C 0,0 C 0,0 C 0,0 C 1,1 C 63 % 52 % 41 % 0 lf 4 lf 200 cb 134 cb 30 cb 13 cb 1029,0 hPa 0,0 mm 12,9 km/h (3 Bft) SO 135 5 min 0 min 0,000 mm 0,6 UV-I 210 W/m -8,0 C -3,1 C 27,4 km/h (5 Bft) 96 %
21.01.2024 12:05 0,9 C 0,7 C 2,2 C 3,9 C 0,6 C 0,4 C 0,7 C -0,6 C -0,6 C 0,0 C 0,0 C 1,1 C 63 % 51 % 40 % 0 lf 4 lf 200 cb 134 cb 30 cb 13 cb 1029,0 hPa 0,0 mm 14,5 km/h (3 Bft) SO 135 5 min 0 min 0,000 mm 0,6 UV-I 220 W/m -8,3 C -3,5 C 27,4 km/h (5 Bft) 97 %
21.01.2024 12:00 0,9 C 0,4 C 2,2 C 3,9 C 0,6 C 0,3 C 0,5 C -0,6 C -0,6 C 0,0 C 0,0 C 1,1 C 63 % 53 % 42 % 0 lf 3 lf 200 cb 135 cb 30 cb 13 cb 1029,1 hPa 0,0 mm 16,1 km/h (3 Bft) SO 135 5 min 0 min 0,127 mm 0,6 UV-I 233 W/m -8,0 C -4,1 C 41,8 km/h (6 Bft) 98 %
21.01.2024 11:55 0,9 C 0,3 C 2,2 C 3,9 C 0,0 C 0,1 C 0,3 C -0,6 C -0,6 C 0,0 C 0,0 C 1,1 C 63 % 55 % 46 % 0 lf 4 lf 200 cb 135 cb 30 cb 13 cb 1029,1 hPa 0,0 mm 12,9 km/h (3 Bft) SO 135 5 min 0 min 0,000 mm 0,6 UV-I 228 W/m -7,7 C -3,6 C 25,7 km/h (4 Bft) 100 %
21.01.2024 11:50 0,9 C 0,1 C 2,2 C 3,9 C 0,0 C -0,1 C 0,1 C -0,6 C -0,6 C 0,0 C 0,0 C 1,1 C 63 % 56 % 46 % 0 lf 3 lf 200 cb 135 cb 30 cb 13 cb 1029,2 hPa 0,0 mm 12,9 km/h (3 Bft) SO 135 5 min 0 min 0,000 mm 0,5 UV-I 208 W/m -7,6 C -3,9 C 40,2 km/h (6 Bft) 100 %
21.01.2024 11:45 0,9 C -0,1 C 2,2 C 3,9 C 0,0 C -0,3 C -0,1 C -0,6 C -0,6 C 0,0 C 0,0 C 1,1 C 63 % 57 % 46 % 0 lf 3 lf 200 cb 135 cb 30 cb 13 cb 1029,3 hPa 0,0 mm 17,7 km/h (3 Bft) SO 135 5 min 0 min 0,000 mm 0,5 UV-I 201 W/m -7,6 C -5,0 C 32,2 km/h (5 Bft) 100 %
21.01.2024 11:40 0,9 C -0,2 C 2,2 C 3,9 C -0,6 C -0,4 C -0,2 C -0,6 C -0,6 C 0,0 C 0,0 C 1,1 C 63 % 56 % 46 % 0 lf 3 lf 200 cb 135 cb 30 cb 13 cb 1029,2 hPa 0,0 mm 20,9 km/h (4 Bft) SO 135 5 min 0 min 0,000 mm 0,5 UV-I 178 W/m -7,9 C -5,6 C 38,6 km/h (6 Bft) 100 %
21.01.2024 11:35 0,9 C -0,4 C 2,2 C 3,9 C -0,6 C -0,4 C -0,3 C -0,6 C -0,6 C 0,0 C 0,0 C 1,1 C 63 % 58 % 48 % 0 lf 3 lf 200 cb 135 cb 30 cb 13 cb 1029,2 hPa 0,0 mm 20,9 km/h (4 Bft) S-SO 157 5 min 0 min 0,000 mm 0,5 UV-I 175 W/m -7,6 C -5,9 C 35,4 km/h (5 Bft) 100 %
21.01.2024 11:30 0,9 C -0,4 C 2,2 C 3,9 C -0,6 C -0,4 C -0,3 C -0,6 C -0,6 C 0,0 C 0,0 C 1,1 C 63 % 58 % 48 % 0 lf 3 lf 200 cb 135 cb 30 cb 13 cb 1029,3 hPa 0,0 mm 24,1 km/h (4 Bft) S-SO 157 5 min 0 min 0,000 mm 0,5 UV-I 185 W/m -7,6 C -6,3 C 45,1 km/h (6 Bft) 100 %
21.01.2024 11:25 0,9 C -0,4 C 2,2 C 3,9 C -0,6 C -0,4 C -0,3 C -0,6 C -0,6 C 0,0 C 0,0 C 1,1 C 63 % 58 % 47 % 0 lf 3 lf 200 cb 136 cb 30 cb 13 cb 1029,3 hPa 0,0 mm 24,1 km/h (4 Bft) S-SO 157 5 min 0 min 0,000 mm 0,5 UV-I 191 W/m -7,6 C -6,3 C 38,6 km/h (6 Bft) 100 %
21.01.2024 11:20 0,9 C -0,3 C 2,2 C 3,9 C -0,6 C -0,3 C -0,2 C -0,6 C -0,6 C 0,0 C 0,0 C 1,1 C 63 % 58 % 48 % 0 lf 3 lf 200 cb 136 cb 30 cb 13 cb 1029,5 hPa 0,0 mm 24,1 km/h (4 Bft) S-SO 157 5 min 0 min 0,000 mm 0,5 UV-I 204 W/m -7,5 C -6,2 C 49,9 km/h (7 Bft) 100 %
21.01.2024 11:15 0,9 C -0,3 C 2,2 C 3,9 C -0,6 C -0,5 C -0,3 C -0,6 C -0,6 C 0,0 C 0,0 C 1,1 C 63 % 59 % 49 % 0 lf 3 lf 200 cb 136 cb 30 cb 13 cb 1029,5 hPa 0,0 mm 24,1 km/h (4 Bft) SO 135 5 min 0 min 0,000 mm 0,5 UV-I 260 W/m -7,3 C -6,2 C 49,9 km/h (7 Bft) 100 %
21.01.2024 11:10 0,9 C -0,5 C 2,2 C 3,9 C -0,6 C -0,7 C -0,5 C -0,6 C -0,6 C 0,0 C 0,0 C 1,1 C 63 % 60 % 49 % 0 lf 3 lf 200 cb 136 cb 30 cb 13 cb 1029,4 hPa 0,0 mm 24,1 km/h (4 Bft) SO 135 5 min 0 min 0,000 mm 0,6 UV-I 261 W/m -7,3 C -6,4 C 43,5 km/h (6 Bft) 100 %
21.01.2024 11:05 0,9 C -0,6 C 2,2 C 3,9 C -0,6 C -0,6 C -0,4 C -1,1 C -1,1 C 0,0 C 0,0 C 1,1 C 63 % 61 % 50 % 0 lf 2 lf 200 cb 136 cb 30 cb 13 cb 1029,3 hPa 0,0 mm 24,1 km/h (4 Bft) SO 135 5 min 0 min 0,000 mm 0,5 UV-I 212 W/m -7,2 C -6,6 C 45,1 km/h (6 Bft) 99 %
21.01.2024 11:00 0,9 C -0,4 C 2,2 C 3,9 C -0,6 C -0,4 C -0,4 C -1,1 C -1,1 C 0,0 C 0,0 C 1,1 C 63 % 60 % 50 % 0 lf 3 lf 200 cb 136 cb 30 cb 13 cb 1029,4 hPa 0,0 mm 27,4 km/h (5 Bft) SO 135 5 min 0 min 0,152 mm 0,6 UV-I 320 W/m -7,2 C -6,7 C 41,8 km/h (6 Bft) 96 %
21.01.2024 10:55 0,8 C -0,4 C 2,2 C 3,9 C -0,6 C -0,7 C -0,4 C -1,1 C -1,1 C 0,0 C 0,0 C 1,1 C 63 % 61 % 50 % 0 lf 3 lf 200 cb 136 cb 30 cb 13 cb 1029,5 hPa 0,0 mm 24,1 km/h (4 Bft) SO 135 5 min 0 min 0,000 mm 0,6 UV-I 339 W/m -7,0 C -6,3 C 45,1 km/h (6 Bft) 96 %
21.01.2024 10:50 0,8 C -0,7 C 2,2 C 3,9 C -0,6 C -0,8 C -0,7 C -1,1 C -1,1 C 0,0 C 0,0 C 1,1 C 63 % 60 % 49 % 0 lf 2 lf 200 cb 136 cb 30 cb 13 cb 1029,5 hPa 0,0 mm 25,7 km/h (4 Bft) SO 135 5 min 0 min 0,000 mm 0,5 UV-I 248 W/m -7,5 C -6,9 C 46,7 km/h (6 Bft) 97 %
21.01.2024 10:45 0,8 C -0,8 C 2,2 C 3,9 C -0,6 C -0,8 C -0,5 C -1,1 C -1,1 C 0,0 C 0,0 C 1,1 C 63 % 60 % 49 % 0 lf 2 lf 200 cb 136 cb 30 cb 13 cb 1029,6 hPa 0,0 mm 20,9 km/h (4 Bft) SO 135 5 min 0 min 0,000 mm 0,3 UV-I 148 W/m -7,6 C -6,4 C 40,2 km/h (6 Bft) 97 %
21.01.2024 10:40 0,8 C -0,5 C 2,2 C 3,9 C -0,6 C -0,5 C -0,2 C -1,1 C -1,1 C 0,0 C 0,0 C 1,1 C 63 % 59 % 48 % 0 lf 2 lf 200 cb 136 cb 30 cb 13 cb 1029,6 hPa 0,0 mm 25,7 km/h (4 Bft) SO 135 5 min 0 min 0,000 mm 0,0 UV-I 133 W/m -7,5 C -6,6 C 45,1 km/h (6 Bft) 99 %
21.01.2024 10:35 0,8 C -0,3 C 2,2 C 3,9 C -0,6 C -0,4 C -0,2 C -1,1 C -1,1 C 0,0 C 0,0 C 1,1 C 64 % 59 % 49 % 0 lf 3 lf 200 cb 136 cb 30 cb 13 cb 1029,6 hPa 0,0 mm 24,1 km/h (4 Bft) SO 135 5 min 0 min 0,000 mm 0,2 UV-I 223 W/m -7,3 C -6,2 C 43,5 km/h (6 Bft) 100 %
21.01.2024 10:30 0,8 C -0,4 C 2,2 C 3,9 C -0,6 C -0,4 C -0,4 C -1,1 C -1,1 C 0,0 C 0,0 C 1,1 C 64 % 59 % 49 % 0 lf 3 lf 200 cb 136 cb 30 cb 13 cb 1029,6 hPa 0,0 mm 24,1 km/h (4 Bft) S-SO 157 5 min 0 min 0,000 mm 0,1 UV-I 203 W/m -7,4 C -6,3 C 41,8 km/h (6 Bft) 100 %
21.01.2024 10:25 0,8 C -0,4 C 2,2 C 3,9 C -0,6 C -0,5 C -0,4 C -1,1 C -1,1 C 0,0 C 0,0 C 1,1 C 64 % 59 % 49 % 0 lf 3 lf 200 cb 136 cb 30 cb 13 cb 1029,6 hPa 0,0 mm 22,5 km/h (4 Bft) SO 135 5 min 0 min 0,000 mm 0,3 UV-I 267 W/m -7,4 C -6,1 C 38,6 km/h (6 Bft) 100 %
21.01.2024 10:20 0,8 C -0,4 C 2,2 C 3,9 C -0,6 C -0,5 C -0,3 C -1,1 C -1,1 C 0,0 C 0,0 C 1,1 C 64 % 58 % 48 % 0 lf 2 lf 200 cb 135 cb 30 cb 13 cb 1029,6 hPa 0,0 mm 25,7 km/h (4 Bft) SO 135 5 min 0 min 0,000 mm 0,0 UV-I 231 W/m -7,6 C -6,5 C 49,9 km/h (7 Bft) 100 %
21.01.2024 10:15 0,7 C -0,5 C 2,2 C 3,9 C -0,6 C -0,8 C -0,5 C -1,7 C -1,7 C 0,0 C 0,0 C 1,1 C 64 % 60 % 49 % 0 lf 3 lf 200 cb 135 cb 30 cb 13 cb 1029,5 hPa 0,0 mm 20,9 km/h (4 Bft) SO 135 5 min 0 min 0,000 mm 0,0 UV-I 284 W/m -7,3 C -6,0 C 38,6 km/h (6 Bft) 100 %
21.01.2024 10:10 0,7 C -0,8 C 2,2 C 3,9 C -1,1 C -1,1 C -0,8 C -1,7 C -1,7 C 0,0 C 0,0 C 1,1 C 64 % 59 % 49 % 0 lf 2 lf 200 cb 135 cb 30 cb 13 cb 1029,8 hPa 0,0 mm 24,1 km/h (4 Bft) S-SO 157 5 min 0 min 0,000 mm 0,0 UV-I 223 W/m -7,8 C -6,8 C 38,6 km/h (6 Bft) 100 %
21.01.2024 10:05 0,7 C -1,1 C 2,2 C 3,9 C -1,7 C -1,3 C -1,1 C -2,2 C -2,2 C 0,0 C 0,0 C 1,1 C 64 % 60 % 50 % 0 lf 2 lf 200 cb 135 cb 30 cb 13 cb 1029,8 hPa 0,0 mm 24,1 km/h (4 Bft) S-SO 157 5 min 0 min 0,000 mm 0,0 UV-I 197 W/m -7,9 C -7,2 C 41,8 km/h (6 Bft) 100 %
21.01.2024 10:00 0,6 C -1,3 C 2,2 C 3,9 C -1,7 C -1,6 C -1,3 C -2,2 C -2,2 C 0,0 C 0,0 C 1,1 C 64 % 62 % 51 % 0 lf 2 lf 200 cb 135 cb 30 cb 13 cb 1029,9 hPa 0,0 mm 20,9 km/h (4 Bft) SO 135 5 min 0 min 0,076 mm 0,0 UV-I 188 W/m -7,6 C -7,0 C 37,0 km/h (5 Bft) 99 %
21.01.2024 09:55 0,6 C -1,6 C 2,2 C 3,9 C -1,7 C -1,7 C -1,6 C -2,8 C -2,8 C 0,0 C 0,0 C 1,1 C 64 % 64 % 52 % 0 lf 2 lf 200 cb 135 cb 30 cb 13 cb 1029,9 hPa 0,0 mm 25,7 km/h (4 Bft) S-SO 157 5 min 0 min 0,000 mm 0,0 UV-I 136 W/m -7,5 C -8,1 C 48,3 km/h (6 Bft) 99 %
21.01.2024 09:50 0,6 C -1,7 C 2,2 C 3,9 C -1,7 C -1,7 C -1,7 C -2,8 C -2,8 C 0,0 C 0,0 C 1,1 C 64 % 64 % 52 % 0 lf 1 lf 200 cb 135 cb 30 cb 13 cb 1029,9 hPa 0,0 mm 24,1 km/h (4 Bft) S-SO 157 5 min 0 min 0,000 mm 0,0 UV-I 116 W/m -7,6 C -8,0 C 46,7 km/h (6 Bft) 100 %
21.01.2024 09:45 0,6 C -1,7 C 2,2 C 3,9 C -1,7 C -1,8 C -1,7 C -2,8 C -2,8 C 0,0 C 0,0 C 1,1 C 64 % 64 % 52 % 0 lf 1 lf 200 cb 134 cb 30 cb 13 cb 1030,1 hPa 0,0 mm 22,5 km/h (4 Bft) SO 135 5 min 0 min 0,000 mm 0,0 UV-I 121 W/m -7,6 C -7,8 C 45,1 km/h (6 Bft) 100 %
21.01.2024 09:40 0,6 C -1,8 C 2,2 C 3,9 C -2,2 C -2,0 C -1,8 C -3,3 C -3,3 C 0,0 C 0,0 C 1,1 C 64 % 65 % 52 % 0 lf 1 lf 200 cb 134 cb 30 cb 13 cb 1030,0 hPa 0,0 mm 22,5 km/h (4 Bft) SO 135 5 min 0 min 0,000 mm 0,0 UV-I 113 W/m -7,5 C -7,9 C 41,8 km/h (6 Bft) 100 %
21.01.2024 09:35 0,6 C -2,0 C 2,2 C 3,9 C -2,2 C -2,1 C -2,0 C -3,3 C -3,3 C 0,0 C 0,0 C 1,1 C 64 % 65 % 52 % 0 lf 1 lf 200 cb 134 cb 30 cb 13 cb 1030,0 hPa 0,0 mm 19,3 km/h (3 Bft) SO 135 5 min 0 min 0,000 mm 0,0 UV-I 106 W/m -7,7 C -7,7 C 33,8 km/h (5 Bft) 99 %
21.01.2024 09:30 0,6 C -2,1 C 2,2 C 3,9 C -2,2 C -2,1 C -2,0 C -3,3 C -3,3 C 0,0 C 0,0 C 1,1 C 64 % 65 % 52 % 0 lf 1 lf 200 cb 134 cb 30 cb 13 cb 1030,0 hPa 0,0 mm 19,3 km/h (3 Bft) SO 135 0 min 0 min 0,000 mm 0,0 UV-I 82 W/m -7,8 C -7,8 C 29,0 km/h (5 Bft) 100 %
21.01.2024 09:25 0,7 C -2,0 C 2,8 C 3,9 C -2,2 C -2,0 C -1,9 C -3,3 C -3,3 C 0,0 C 0,0 C 1,1 C 64 % 65 % 52 % 0 lf 1 lf 200 cb 134 cb 30 cb 13 cb 1030,0 hPa 0,0 mm 22,5 km/h (4 Bft) SO 135 0 min 0 min 0,000 mm 0,0 UV-I 80 W/m -7,7 C -8,1 C 38,6 km/h (6 Bft) 100 %
21.01.2024 09:20 0,6 C -1,9 C 2,2 C 3,9 C -2,2 C -1,9 C -1,9 C -3,3 C -3,3 C 0,0 C 0,0 C 1,1 C 64 % 64 % 52 % 0 lf 1 lf 200 cb 134 cb 30 cb 13 cb 1030,1 hPa 0,0 mm 22,5 km/h (4 Bft) SO 135 0 min 0 min 0,000 mm 0,0 UV-I 75 W/m -7,8 C -8,0 C 37,0 km/h (5 Bft) 100 %
21.01.2024 09:15 0,6 C -1,9 C 2,2 C 3,9 C -2,2 C -2,1 C -1,9 C -3,9 C -3,9 C 0,0 C 0,0 C 1,1 C 65 % 64 % 52 % 0 lf 1 lf 200 cb 133 cb 30 cb 13 cb 1030,2 hPa 0,0 mm 19,3 km/h (3 Bft) O-SO 112 0 min 0 min 0,000 mm 0,0 UV-I 85 W/m -7,8 C -7,5 C 32,2 km/h (5 Bft) 100 %
21.01.2024 09:10 0,6 C -2,2 C 2,8 C 3,9 C -2,8 C -2,5 C -2,1 C -3,9 C -3,9 C 0,0 C 0,0 C 1,1 C 65 % 66 % 54 % 0 lf 1 lf 200 cb 133 cb 30 cb 13 cb 1030,3 hPa 0,0 mm 16,1 km/h (3 Bft) O-SO 112 5 min 0 min 0,000 mm 0,0 UV-I 124 W/m -7,7 C -7,3 C 29,0 km/h (5 Bft) 100 %
21.01.2024 09:05 0,6 C -2,5 C 2,2 C 3,9 C -2,8 C -2,7 C -2,5 C -3,9 C -3,9 C 0,0 C 0,0 C 1,1 C 65 % 68 % 54 % 0 lf 1 lf 200 cb 133 cb 30 cb 13 cb 1030,2 hPa 0,0 mm 17,7 km/h (3 Bft) O-SO 112 5 min 0 min 0,000 mm 0,0 UV-I 120 W/m -7,6 C -8,0 C 32,2 km/h (5 Bft) 100 %
21.01.2024 09:00 0,6 C -2,7 C 2,2 C 3,9 C -2,8 C -2,8 C -2,7 C -4,4 C -4,4 C 0,0 C 0,0 C 1,1 C 65 % 69 % 55 % 0 lf 1 lf 200 cb 133 cb 30 cb 13 cb 1030,1 hPa 0,0 mm 19,3 km/h (3 Bft) O-SO 112 5 min 0 min 0,051 mm 0,0 UV-I 106 W/m -7,6 C -8,5 C 29,0 km/h (5 Bft) 100 %
21.01.2024 08:55 0,6 C -2,8 C 2,2 C 3,9 C -3,3 C -3,1 C -2,8 C -4,4 C -4,4 C 0,0 C 0,0 C 1,1 C 65 % 69 % 55 % 0 lf 1 lf 200 cb 132 cb 30 cb 13 cb 1030,1 hPa 0,0 mm 22,5 km/h (4 Bft) O-SO 112 0 min 0 min 0,000 mm 0,0 UV-I 93 W/m -7,7 C -9,2 C 30,6 km/h (5 Bft) 98 %
21.01.2024 08:50 0,6 C -3,2 C 2,8 C 3,9 C -3,3 C -3,4 C -3,2 C -4,4 C -4,4 C 0,0 C 0,0 C 1,1 C 65 % 71 % 56 % 0 lf 1 lf 200 cb 132 cb 30 cb 13 cb 1030,1 hPa 0,0 mm 20,9 km/h (4 Bft) O-SO 112 0 min 0 min 0,000 mm 0,0 UV-I 79 W/m -7,7 C -9,4 C 30,6 km/h (5 Bft) 97 %
21.01.2024 08:45 0,6 C -3,4 C 2,8 C 3,9 C -3,9 C -3,7 C -3,4 C -5,0 C -5,0 C 0,0 C 0,0 C 1,1 C 65 % 71 % 55 % 0 lf 1 lf 200 cb 132 cb 30 cb 13 cb 1030,2 hPa 0,0 mm 20,9 km/h (4 Bft) O-SO 112 0 min 0 min 0,000 mm 0,0 UV-I 48 W/m -7,9 C -9,7 C 29,0 km/h (5 Bft) 100 %
21.01.2024 08:40 0,6 C -3,8 C 2,8 C 3,9 C -3,9 C -3,8 C -3,7 C -5,0 C -5,0 C 0,0 C 0,0 C 1,1 C 65 % 71 % 55 % 0 lf 1 lf 200 cb 132 cb 30 cb 13 cb 1030,2 hPa 0,0 mm 22,5 km/h (4 Bft) O-SO 112 0 min 0 min 0,000 mm 0,0 UV-I 27 W/m -8,3 C -10,4 C 32,2 km/h (5 Bft) 98 %
21.01.2024 08:35 0,6 C -3,8 C 2,8 C 3,9 C -3,9 C -3,9 C -3,8 C -5,0 C -5,0 C 0,0 C 0,0 C 1,1 C 65 % 71 % 55 % 0 lf 1 lf 200 cb 132 cb 30 cb 13 cb 1030,2 hPa 0,0 mm 22,5 km/h (4 Bft) O-SO 112 0 min 0 min 0,000 mm 0,0 UV-I 22 W/m -8,3 C -10,4 C 32,2 km/h (5 Bft) 100 %
21.01.2024 08:30 0,6 C -3,9 C 2,8 C 3,9 C -3,9 C -3,9 C -3,8 C -5,0 C -5,0 C 0,0 C 0,0 C 1,1 C 65 % 72 % 55 % 0 lf 1 lf 200 cb 132 cb 30 cb 13 cb 1030,2 hPa 0,0 mm 20,9 km/h (4 Bft) O-SO 112 0 min 0 min 0,000 mm 0,0 UV-I 19 W/m -8,2 C -10,3 C 33,8 km/h (5 Bft) 99 %
21.01.2024 08:25 0,6 C -3,8 C 2,8 C 3,9 C -3,9 C -3,8 C -3,8 C -5,0 C -5,0 C 0,0 C 0,0 C 1,1 C 65 % 71 % 55 % 0 lf 1 lf 200 cb 132 cb 30 cb 13 cb 1030,2 hPa 0,0 mm 20,9 km/h (4 Bft) O-SO 112 0 min 0 min 0,000 mm 0,0 UV-I 18 W/m -8,3 C -10,2 C 33,8 km/h (5 Bft) 98 %
21.01.2024 08:20 0,6 C -3,8 C 2,8 C 3,9 C -3,9 C -3,8 C -3,8 C -5,0 C -5,0 C 0,0 C 0,0 C 1,1 C 65 % 70 % 55 % 0 lf 1 lf 200 cb 132 cb 30 cb 13 cb 1030,3 hPa 0,0 mm 19,3 km/h (3 Bft) O-SO 112 0 min 0 min 0,000 mm 0,0 UV-I 16 W/m -8,4 C -9,9 C 29,0 km/h (5 Bft) 98 %
21.01.2024 08:15 0,6 C -3,8 C 2,8 C 3,9 C -3,9 C -3,9 C -3,8 C -5,0 C -5,0 C 0,0 C 0,0 C 1,1 C 65 % 71 % 55 % 0 lf 1 lf 200 cb 132 cb 30 cb 13 cb 1030,5 hPa 0,0 mm 17,7 km/h (3 Bft) O-SO 112 0 min 0 min 0,000 mm 0,0 UV-I 15 W/m -8,3 C -9,6 C 25,7 km/h (4 Bft) 97 %
21.01.2024 08:10 0,6 C -3,9 C 2,8 C 3,9 C -3,9 C -4,0 C -3,9 C -5,0 C -5,0 C 0,0 C 0,0 C 1,1 C 65 % 70 % 55 % 0 lf 1 lf 200 cb 131 cb 30 cb 13 cb 1030,5 hPa 0,0 mm 17,7 km/h (3 Bft) O-SO 112 0 min 0 min 0,000 mm 0,0 UV-I 13 W/m -8,5 C -9,8 C 24,1 km/h (4 Bft) 100 %
21.01.2024 08:05 0,6 C -3,9 C 2,8 C 3,9 C -3,9 C -4,1 C -3,9 C -5,6 C -5,6 C 0,0 C 0,0 C 1,1 C 65 % 70 % 55 % 0 lf 1 lf 200 cb 131 cb 30 cb 13 cb 1030,7 hPa 0,0 mm 16,1 km/h (3 Bft) O-SO 112 0 min 0 min 0,000 mm 0,0 UV-I 10 W/m -8,5 C -9,5 C 24,1 km/h (4 Bft) 100 %
21.01.2024 08:00 0,7 C -4,0 C 2,8 C 3,9 C -4,4 C -4,1 C -4,0 C -5,6 C -5,6 C 0,0 C 0,0 C 1,1 C 65 % 70 % 55 % 0 lf 1 lf 200 cb 131 cb 30 cb 13 cb 1030,7 hPa 0,0 mm 14,5 km/h (3 Bft) O-SO 112 0 min 0 min 0,025 mm 0,0 UV-I 8 W/m -8,6 C -9,2 C 20,9 km/h (4 Bft) 100 %
21.01.2024 07:55 0,7 C -4,1 C 2,8 C 3,9 C -4,4 C -4,2 C -4,1 C -5,6 C -5,6 C 0,0 C 0,0 C 1,1 C 65 % 71 % 55 % 0 lf 1 lf 200 cb 131 cb 30 cb 13 cb 1030,8 hPa 0,0 mm 14,5 km/h (3 Bft) O-SO 112 0 min 0 min 0,000 mm 0,0 UV-I 6 W/m -8,6 C -9,4 C 20,9 km/h (4 Bft) 100 %
21.01.2024 07:50 0,7 C -4,2 C 2,8 C 3,9 C -4,4 C -4,4 C -4,2 C -5,6 C -5,6 C 0,0 C 0,0 C 1,1 C 65 % 71 % 56 % 0 lf 1 lf 200 cb 130 cb 30 cb 13 cb 1030,8 hPa 0,0 mm 14,5 km/h (3 Bft) O-SO 112 0 min 0 min 0,000 mm 0,0 UV-I 2 W/m -8,7 C -9,5 C 19,3 km/h (3 Bft) 98 %
21.01.2024 07:45 0,7 C -4,4 C 2,8 C 3,9 C -4,4 C -4,6 C -4,4 C -5,6 C -5,6 C 0,0 C 0,0 C 1,1 C 65 % 72 % 56 % 0 lf 1 lf 200 cb 130 cb 30 cb 13 cb 1030,9 hPa 0,0 mm 12,9 km/h (3 Bft) O-SO 112 0 min 0 min 0,000 mm 0,0 UV-I 0 W/m -8,7 C -9,4 C 19,3 km/h (3 Bft) 98 %
21.01.2024 07:40 0,7 C -4,6 C 2,8 C 3,9 C -4,4 C -4,8 C -4,6 C -5,6 C -5,6 C 0,0 C 0,0 C 1,1 C 65 % 73 % 56 % 0 lf 1 lf 200 cb 130 cb 30 cb 13 cb 1031,0 hPa 0,0 mm 14,5 km/h (3 Bft) O-SO 112 0 min 0 min 0,000 mm 0,0 UV-I 0 W/m -8,7 C -10,0 C 19,3 km/h (3 Bft) 97 %
21.01.2024 07:35 0,7 C -4,8 C 2,8 C 3,9 C -4,4 C -4,9 C -4,8 C -5,6 C -5,6 C 0,0 C 0,0 C 1,1 C 65 % 74 % 56 % 0 lf 1 lf 200 cb 129 cb 30 cb 13 cb 1031,1 hPa 0,0 mm 12,9 km/h (3 Bft) O-SO 112 0 min 0 min 0,000 mm 0,0 UV-I 0 W/m -8,7 C -9,8 C 17,7 km/h (3 Bft) 98 %
21.01.2024 07:30 0,7 C -4,9 C 2,8 C 3,9 C -4,4 C -4,9 C -4,8 C -5,6 C -5,6 C 0,0 C 0,0 C 1,1 C 65 % 74 % 56 % 0 lf 1 lf 200 cb 129 cb 30 cb 13 cb 1031,3 hPa 0,0 mm 11,3 km/h (2 Bft) O-SO 112 0 min 0 min 0,000 mm 0,0 UV-I 0 W/m -8,8 C -9,5 C 19,3 km/h (3 Bft) 98 %
21.01.2024 07:25 0,7 C -4,8 C 2,8 C 3,9 C -4,4 C -4,9 C -4,8 C -5,6 C -5,6 C 0,0 C 0,0 C 1,1 C 65 % 74 % 56 % 0 lf 1 lf 200 cb 129 cb 30 cb 13 cb 1031,4 hPa 0,0 mm 9,7 km/h (2 Bft) O-SO 112 0 min 0 min 0,000 mm 0,0 UV-I 0 W/m -8,7 C -9,0 C 16,1 km/h (3 Bft) 99 %
21.01.2024 07:20 0,7 C -4,8 C 2,8 C 3,9 C -4,4 C -4,8 C -4,8 C -5,6 C -5,6 C 0,0 C 0,0 C 1,1 C 65 % 74 % 55 % 0 lf 1 lf 200 cb 129 cb 30 cb 13 cb 1031,3 hPa 0,0 mm 11,3 km/h (2 Bft) O-SO 112 0 min 0 min 0,000 mm 0,0 UV-I 0 W/m -8,7 C -9,4 C 17,7 km/h (3 Bft) 100 %
21.01.2024 07:15 0,8 C -4,8 C 2,8 C 3,9 C -4,4 C -4,8 C -4,7 C -5,6 C -5,6 C 0,0 C 0,0 C 1,1 C 65 % 74 % 55 % 0 lf 1 lf 200 cb 129 cb 30 cb 13 cb 1031,4 hPa 0,0 mm 9,7 km/h (2 Bft) O-SO 112 0 min 0 min 0,000 mm 0,0 UV-I 0 W/m -8,7 C -9,0 C 14,5 km/h (3 Bft) 97 %
21.01.2024 07:10 0,8 C -4,7 C 2,8 C 3,9 C -3,9 C -4,7 C -4,4 C -5,6 C -5,6 C 0,0 C 0,0 C 1,1 C 65 % 73 % 55 % 0 lf 1 lf 200 cb 129 cb 30 cb 13 cb 1031,4 hPa 0,0 mm 11,3 km/h (2 Bft) SO 135 0 min 0 min 0,000 mm 0,0 UV-I 0 W/m -8,8 C -9,3 C 14,5 km/h (3 Bft) 98 %
21.01.2024 07:05 0,8 C -4,4 C 2,8 C 3,9 C -3,9 C -4,4 C -4,0 C -5,0 C -5,0 C 0,0 C 0,0 C 1,1 C 65 % 71 % 54 % 0 lf 1 lf 200 cb 128 cb 30 cb 13 cb 1031,1 hPa 0,0 mm 9,7 km/h (2 Bft) SO 135 0 min 0 min 0,000 mm 0,0 UV-I 0 W/m -8,8 C -8,5 C 16,1 km/h (3 Bft) 98 %
21.01.2024 07:00 0,8 C -4,0 C 2,8 C 3,9 C -3,9 C -4,0 C -3,7 C -5,6 C -5,6 C 0,0 C 0,0 C 1,1 C 65 % 70 % 54 % 0 lf 1 lf 200 cb 128 cb 30 cb 13 cb 1031,0 hPa 0,0 mm 12,9 km/h (3 Bft) O-SO 112 0 min 0 min 0,025 mm 0,0 UV-I 0 W/m -8,6 C -8,9 C 19,3 km/h (3 Bft) 97 %
21.01.2024 06:55 0,8 C -3,7 C 2,8 C 3,9 C -3,3 C -3,7 C -3,6 C -5,6 C -5,6 C 0,0 C 0,0 C 1,1 C 65 % 69 % 53 % 0 lf 1 lf 200 cb 128 cb 30 cb 13 cb 1030,8 hPa 0,0 mm 16,1 km/h (3 Bft) O-SO 112 0 min 0 min 0,000 mm 0,0 UV-I 0 W/m -8,5 C -9,2 C 22,5 km/h (4 Bft) 99 %
21.01.2024 06:50 0,8 C -3,6 C 2,8 C 3,9 C -3,3 C -3,6 C -3,4 C -5,6 C -5,6 C 0,0 C 0,0 C 1,1 C 65 % 68 % 53 % 0 lf 1 lf 200 cb 127 cb 30 cb 13 cb 1030,9 hPa 0,0 mm 12,9 km/h (3 Bft) O-SO 112 0 min 0 min 0,000 mm 0,0 UV-I 0 W/m -8,6 C -8,4 C 20,9 km/h (4 Bft) 98 %
21.01.2024 06:45 0,8 C -3,4 C 2,8 C 3,9 C -3,3 C -3,4 C -3,3 C -5,6 C -5,6 C 0,0 C 0,0 C 1,1 C 65 % 68 % 53 % 0 lf 1 lf 200 cb 127 cb 30 cb 13 cb 1030,9 hPa 0,0 mm 14,5 km/h (3 Bft) O-SO 112 0 min 0 min 0,000 mm 0,0 UV-I 0 W/m -8,4 C -8,5 C 19,3 km/h (3 Bft) 97 %
21.01.2024 06:40 0,9 C -3,3 C 2,8 C 3,9 C -3,3 C -3,4 C -3,3 C -5,6 C -5,6 C 0,0 C 0,0 C 1,1 C 65 % 67 % 53 % 0 lf 1 lf 200 cb 127 cb 30 cb 13 cb 1031,0 hPa 0,0 mm 14,5 km/h (3 Bft) O-SO 112 0 min 0 min 0,000 mm 0,0 UV-I 0 W/m -8,5 C -8,4 C 19,3 km/h (3 Bft) 97 %
21.01.2024 06:35 0,9 C -3,4 C 2,8 C 3,9 C -3,3 C -3,6 C -3,4 C -5,6 C -5,6 C 0,0 C 0,0 C 1,1 C 65 % 67 % 53 % 0 lf 1 lf 200 cb 126 cb 30 cb 13 cb 1031,0 hPa 0,0 mm 14,5 km/h (3 Bft) O-SO 112 0 min 0 min 0,000 mm 0,0 UV-I 0 W/m -8,6 C -8,5 C 22,5 km/h (4 Bft) 96 %
21.01.2024 06:30 0,9 C -3,6 C 2,8 C 3,9 C -3,3 C -3,8 C -3,6 C -5,6 C -5,6 C 0,0 C 0,0 C 1,1 C 65 % 67 % 53 % 0 lf 1 lf 200 cb 126 cb 30 cb 13 cb 1031,0 hPa 0,0 mm 16,1 km/h (3 Bft) O-SO 112 0 min 0 min 0,000 mm 0,0 UV-I 0 W/m -8,8 C -9,1 C 22,5 km/h (4 Bft) 95 %
21.01.2024 06:25 0,9 C -3,8 C 2,8 C 3,9 C -3,3 C -3,8 C -3,7 C -5,6 C -5,6 C 0,0 C 0,0 C 1,1 C 65 % 66 % 52 % 0 lf 1 lf 200 cb 126 cb 30 cb 13 cb 1030,9 hPa 0,0 mm 14,5 km/h (3 Bft) O-SO 112 0 min 0 min 0,000 mm 0,0 UV-I 0 W/m -9,2 C -9,0 C 19,3 km/h (3 Bft) 96 %
21.01.2024 06:20 0,9 C -3,7 C 2,8 C 3,9 C -3,3 C -3,7 C -3,6 C -6,1 C -6,1 C 0,0 C 0,0 C 1,1 C 65 % 64 % 51 % 0 lf 1 lf 200 cb 126 cb 30 cb 13 cb 1031,0 hPa 0,0 mm 12,9 km/h (3 Bft) O-SO 112 0 min 0 min 0,000 mm 0,0 UV-I 0 W/m -9,5 C -8,5 C 16,1 km/h (3 Bft) 94 %
21.01.2024 06:15 0,9 C -3,6 C 2,8 C 3,9 C -3,3 C -3,7 C -3,6 C -6,1 C -6,1 C 0,0 C 0,0 C 1,1 C 65 % 63 % 51 % 0 lf 1 lf 200 cb 126 cb 30 cb 13 cb 1031,1 hPa 0,0 mm 16,1 km/h (3 Bft) O-SO 112 0 min 0 min 0,000 mm 0,0 UV-I 0 W/m -9,6 C -9,1 C 20,9 km/h (4 Bft) 100 %
21.01.2024 06:10 0,9 C -3,7 C 2,8 C 3,9 C -3,3 C -3,7 C -3,4 C -6,1 C -6,1 C 0,0 C 0,0 C 1,1 C 65 % 62 % 50 % 0 lf 1 lf 200 cb 126 cb 30 cb 13 cb 1031,2 hPa 0,0 mm 14,5 km/h (3 Bft) O-SO 112 0 min 0 min 0,000 mm 0,0 UV-I 0 W/m -9,9 C -8,9 C 17,7 km/h (3 Bft) 100 %
21.01.2024 06:05 0,9 C -3,3 C 2,8 C 3,9 C -3,3 C -3,3 C -3,0 C -6,1 C -6,1 C 0,0 C 0,0 C 1,1 C 65 % 60 % 49 % 0 lf 1 lf 200 cb 125 cb 30 cb 13 cb 1031,2 hPa 0,0 mm 9,7 km/h (2 Bft) SO 135 0 min 0 min 0,000 mm 0,0 UV-I 0 W/m -9,9 C -7,2 C 17,7 km/h (3 Bft) 100 %
21.01.2024 06:00 0,9 C -3,0 C 2,8 C 3,9 C -3,3 C -3,0 C -2,9 C -6,1 C -6,1 C 0,0 C 0,0 C 1,1 C 65 % 58 % 48 % 0 lf 1 lf 200 cb 125 cb 30 cb 13 cb 1031,2 hPa 0,0 mm 12,9 km/h (3 Bft) O-SO 112 0 min 0 min 0,025 mm 0,0 UV-I 0 W/m -10,1 C -7,7 C 19,3 km/h (3 Bft) 96 %
21.01.2024 05:55 1,0 C -2,9 C 2,8 C 3,9 C -3,3 C -3,1 C -2,9 C -6,1 C -6,1 C 0,0 C 0,0 C 1,1 C 65 % 58 % 48 % 0 lf 1 lf 200 cb 125 cb 30 cb 13 cb 1031,1 hPa 0,0 mm 16,1 km/h (3 Bft) O-SO 112 0 min 0 min 0,000 mm 0,0 UV-I 0 W/m -10,0 C -8,2 C 24,1 km/h (4 Bft) 98 %
21.01.2024 05:50 1,0 C -3,1 C 2,8 C 3,9 C -3,3 C -3,2 C -3,0 C -6,7 C -6,7 C 0,0 C 0,0 C 1,1 C 65 % 57 % 47 % 0 lf 1 lf 200 cb 124 cb 30 cb 13 cb 1031,2 hPa 0,0 mm 14,5 km/h (3 Bft) O-SO 112 0 min 0 min 0,000 mm 0,0 UV-I 0 W/m -10,4 C -8,1 C 20,9 km/h (4 Bft) 97 %
21.01.2024 05:45 1,1 C -3,2 C 2,8 C 3,9 C -3,9 C -3,2 C -3,1 C -6,7 C -6,7 C 0,0 C 0,0 C 1,1 C 65 % 57 % 48 % 0 lf 1 lf 200 cb 124 cb 30 cb 13 cb 1031,1 hPa 0,0 mm 11,3 km/h (2 Bft) O-SO 112 0 min 0 min 0,000 mm 0,0 UV-I 0 W/m -10,5 C -7,5 C 19,3 km/h (3 Bft) 97 %
21.01.2024 05:40 1,0 C -3,2 C 2,8 C 3,9 C -3,9 C -3,4 C -3,2 C -6,7 C -6,7 C 0,0 C 0,0 C 1,1 C 65 % 57 % 48 % 0 lf 1 lf 200 cb 124 cb 30 cb 13 cb 1031,2 hPa 0,0 mm 12,9 km/h (3 Bft) O-SO 112 0 min 0 min 0,000 mm 0,0 UV-I 0 W/m -10,5 C -7,9 C 19,3 km/h (3 Bft) 100 %
21.01.2024 05:35 1,1 C -3,4 C 2,8 C 3,9 C -4,4 C -3,7 C -3,4 C -6,7 C -6,7 C 0,0 C 0,0 C 1,1 C 65 % 57 % 44 % 0 lf 1 lf 200 cb 123 cb 30 cb 13 cb 1031,1 hPa 0,0 mm 16,1 km/h (3 Bft) O-SO 112 0 min 0 min 0,000 mm 0,0 UV-I 0 W/m -10,7 C -8,8 C 20,9 km/h (4 Bft) 100 %
21.01.2024 05:30 1,1 C -3,7 C 2,8 C 3,9 C -5,0 C -4,1 C -3,7 C -6,7 C -6,7 C 0,0 C 0,0 C 1,1 C 65 % 58 % 46 % 0 lf 1 lf 200 cb 123 cb 30 cb 13 cb 1031,2 hPa 0,0 mm 14,5 km/h (3 Bft) O-SO 112 0 min 0 min 0,000 mm 0,0 UV-I 0 W/m -10,7 C -8,9 C 17,7 km/h (3 Bft) 100 %
21.01.2024 05:25 1,1 C -4,1 C 2,8 C 3,9 C -5,0 C -4,5 C -4,0 C -7,2 C -7,2 C 0,0 C 0,0 C 1,1 C 65 % 59 % 47 % 0 lf 1 lf 200 cb 123 cb 30 cb 13 cb 1031,1 hPa 0,0 mm 14,5 km/h (3 Bft) SO 135 0 min 0 min 0,000 mm 0,0 UV-I 0 W/m -10,9 C -9,4 C 17,7 km/h (3 Bft) 99 %
21.01.2024 05:20 1,1 C -4,5 C 2,8 C 3,9 C -5,6 C -5,1 C -4,5 C -7,2 C -7,2 C 0,0 C 0,0 C 1,1 C 65 % 62 % 49 % 0 lf 1 lf 200 cb 123 cb 30 cb 13 cb 1031,2 hPa 0,0 mm 14,5 km/h (3 Bft) SO 135 0 min 0 min 0,000 mm 0,0 UV-I 0 W/m -10,7 C -9,9 C 19,3 km/h (3 Bft) 100 %
21.01.2024 05:15 1,1 C -5,1 C 2,8 C 3,9 C -6,1 C -6,0 C -5,1 C -7,2 C -7,2 C 0,0 C 0,0 C 1,1 C 65 % 64 % 51 % 0 lf 1 lf 200 cb 123 cb 30 cb 13 cb 1031,2 hPa 0,0 mm 14,5 km/h (3 Bft) SO 135 0 min 0 min 0,000 mm 0,0 UV-I 0 W/m -10,8 C -10,6 C 17,7 km/h (3 Bft) 97 %
21.01.2024 05:10 1,1 C -6,0 C 2,8 C 3,9 C -6,7 C -6,6 C -6,0 C -7,2 C -7,2 C 0,0 C 0,0 C 1,1 C 65 % 67 % 52 % 0 lf 1 lf 200 cb 123 cb 30 cb 13 cb 1031,2 hPa 0,0 mm 14,5 km/h (3 Bft) SO 135 0 min 0 min 0,000 mm 0,0 UV-I 0 W/m -11,1 C -11,7 C 17,7 km/h (3 Bft) 100 %
21.01.2024 05:05 1,2 C -6,6 C 2,8 C 3,9 C -6,7 C -6,7 C -6,5 C -7,2 C -7,2 C 0,0 C 0,0 C 1,1 C 65 % 67 % 52 % 0 lf 1 lf 200 cb 122 cb 30 cb 13 cb 1031,3 hPa 0,0 mm 9,7 km/h (2 Bft) SO 135 0 min 0 min 0,000 mm 0,0 UV-I 0 W/m -11,7 C -11,1 C 14,5 km/h (3 Bft) 100 %
21.01.2024 05:00 1,2 C -6,8 C 2,8 C 3,9 C -6,7 C -6,8 C -6,6 C -7,2 C -7,2 C 0,0 C 0,0 C 1,1 C 65 % 68 % 52 % 0 lf 1 lf 200 cb 122 cb 30 cb 13 cb 1031,4 hPa 0,0 mm 12,9 km/h (3 Bft) SO 135 0 min 0 min 0,025 mm 0,0 UV-I 0 W/m -11,7 C -12,3 C 16,1 km/h (3 Bft) 100 %
21.01.2024 04:55 1,2 C -6,6 C 2,8 C 3,9 C -6,7 C -6,6 C -6,3 C -7,8 C -7,8 C 0,0 C 0,0 C 1,1 C 65 % 67 % 53 % 0 lf 1 lf 200 cb 122 cb 30 cb 13 cb 1031,4 hPa 0,0 mm 12,9 km/h (3 Bft) SO 135 0 min 0 min 0,000 mm 0,0 UV-I 0 W/m -11,7 C -12,0 C 17,7 km/h (3 Bft) 100 %
21.01.2024 04:50 1,2 C -6,3 C 2,8 C 3,9 C -6,7 C -6,4 C -6,3 C -7,8 C -7,8 C 0,0 C 0,0 C 1,1 C 65 % 67 % 53 % 0 lf 1 lf 200 cb 121 cb 30 cb 13 cb 1031,3 hPa 0,0 mm 12,9 km/h (3 Bft) SO 135 0 min 0 min 0,000 mm 0,0 UV-I 0 W/m -11,4 C -11,7 C 16,1 km/h (3 Bft) 100 %
21.01.2024 04:45 1,2 C -6,3 C 2,8 C 3,9 C -6,7 C -6,3 C -6,3 C -7,8 C -7,8 C 0,0 C 0,0 C 1,1 C 65 % 67 % 53 % 0 lf 1 lf 200 cb 121 cb 30 cb 13 cb 1031,3 hPa 0,0 mm 12,9 km/h (3 Bft) SO 135 0 min 0 min 0,000 mm 0,0 UV-I 0 W/m -11,4 C -11,7 C 17,7 km/h (3 Bft) 97 %
21.01.2024 04:40 1,2 C -6,3 C 2,8 C 3,9 C -6,7 C -6,3 C -6,1 C -7,8 C -7,8 C 0,0 C 0,0 C 1,1 C 65 % 66 % 54 % 0 lf 1 lf 200 cb 121 cb 30 cb 13 cb 1031,4 hPa 0,0 mm 11,3 km/h (2 Bft) SO 135 0 min 0 min 0,000 mm 0,0 UV-I 0 W/m -11,6 C -11,2 C 16,1 km/h (3 Bft) 99 %
21.01.2024 04:35 1,2 C -6,0 C 2,8 C 3,9 C -7,2 C -6,2 C -6,0 C -7,8 C -7,8 C 0,0 C 0,0 C 1,1 C 65 % 66 % 55 % 0 lf 1 lf 200 cb 121 cb 30 cb 13 cb 1031,5 hPa 0,0 mm 11,3 km/h (2 Bft) SO 135 0 min 0 min 0,000 mm 0,0 UV-I 0 W/m -11,3 C -10,9 C 16,1 km/h (3 Bft) 96 %
21.01.2024 04:30 1,3 C -6,2 C 2,8 C 3,9 C -7,8 C -6,3 C -6,2 C -8,3 C -8,3 C 0,0 C 0,0 C 1,1 C 65 % 66 % 57 % 0 lf 1 lf 200 cb 121 cb 30 cb 13 cb 1031,6 hPa 0,0 mm 8,0 km/h (2 Bft) SO 135 0 min 0 min 0,000 mm 0,0 UV-I 0 W/m -11,5 C -10,0 C 16,1 km/h (3 Bft) 97 %
21.01.2024 04:25 1,3 C -6,2 C 2,8 C 3,9 C -7,8 C -6,2 C -5,8 C -8,3 C -8,3 C 0,0 C 0,0 C 1,1 C 65 % 66 % 57 % 0 lf 1 lf 200 cb 121 cb 30 cb 13 cb 1031,6 hPa 0,0 mm 4,8 km/h (1 Bft) SO 135 0 min 0 min 0,000 mm 0,0 UV-I 0 W/m -11,5 C -8,5 C 11,3 km/h (2 Bft) 100 %
21.01.2024 04:20 1,3 C -5,8 C 2,8 C 3,9 C -8,3 C -5,8 C -5,6 C -8,3 C -8,3 C 0,0 C 0,0 C 1,1 C 65 % 65 % 58 % 0 lf 1 lf 200 cb 121 cb 30 cb 13 cb 1031,7 hPa 0,0 mm 6,4 km/h (2 Bft) O-SO 112 0 min 0 min 0,000 mm 0,0 UV-I 0 W/m -11,3 C -8,9 C 14,5 km/h (3 Bft) 98 %
21.01.2024 04:15 1,3 C -5,8 C 2,8 C 3,9 C -8,9 C -6,2 C -5,7 C -8,3 C -8,3 C 0,0 C 0,0 C 1,1 C 65 % 65 % 58 % 0 lf 1 lf 200 cb 120 cb 30 cb 13 cb 1031,7 hPa 0,0 mm 6,4 km/h (2 Bft) O-SO 112 0 min 0 min 0,000 mm 0,0 UV-I 0 W/m -11,3 C -8,9 C 11,3 km/h (2 Bft) 98 %
21.01.2024 04:10 1,3 C -6,3 C 2,8 C 3,9 C -8,9 C -7,4 C -6,3 C -8,3 C -8,3 C 0,0 C 0,0 C 1,1 C 65 % 68 % 59 % 0 lf 1 lf 200 cb 120 cb 30 cb 13 cb 1031,8 hPa 0,0 mm 8,0 km/h (2 Bft) O-SO 112 0 min 0 min 0,000 mm 0,0 UV-I 0 W/m -11,2 C -10,1 C 12,9 km/h (3 Bft) 100 %
21.01.2024 04:05 1,3 C -7,4 C 2,8 C 3,9 C -8,9 C -8,7 C -7,4 C -8,3 C -8,3 C 0,0 C 0,0 C 1,1 C 65 % 71 % 59 % 0 lf 1 lf 200 cb 120 cb 30 cb 13 cb 1031,8 hPa 0,0 mm 8,0 km/h (2 Bft) O-SO 112 0 min 0 min 0,000 mm 0,0 UV-I 0 W/m -11,7 C -11,4 C 11,3 km/h (2 Bft) 100 %
21.01.2024 04:00 1,3 C -8,7 C 2,8 C 3,9 C -9,4 C -9,1 C -8,7 C -8,3 C -8,3 C 0,0 C 0,0 C 1,1 C 65 % 75 % 59 % 0 lf 0 lf 200 cb 120 cb 30 cb 13 cb 1031,8 hPa 0,0 mm 9,7 km/h (2 Bft) SO 135 0 min 0 min 0,025 mm 0,0 UV-I 0 W/m -12,3 C -13,6 C 12,9 km/h (3 Bft) 100 %
21.01.2024 03:55 1,3 C -8,9 C 2,8 C 3,9 C -9,4 C -8,9 C -8,8 C -8,3 C -8,3 C 0,0 C 0,0 C 1,1 C 65 % 75 % 59 % 0 lf 1 lf 200 cb 119 cb 30 cb 13 cb 1031,8 hPa 0,0 mm 6,4 km/h (2 Bft) SO 135 0 min 0 min 0,000 mm 0,0 UV-I 0 W/m -12,5 C -12,5 C 11,3 km/h (2 Bft) 100 %
21.01.2024 03:50 1,4 C -8,8 C 2,8 C 3,9 C -8,9 C -8,8 C -8,7 C -8,3 C -8,3 C 0,0 C 0,0 C 1,1 C 65 % 74 % 59 % 0 lf 1 lf 200 cb 119 cb 30 cb 13 cb 1031,9 hPa 0,0 mm 4,8 km/h (1 Bft) S-SO 157 0 min 0 min 0,000 mm 0,0 UV-I 0 W/m -12,6 C -11,4 C 8,0 km/h (2 Bft) 100 %
21.01.2024 03:45 1,4 C -8,7 C 2,8 C 3,9 C -8,9 C -8,7 C -8,4 C -8,3 C -8,3 C 0,0 C 0,0 C 1,1 C 65 % 73 % 59 % 0 lf 1 lf 200 cb 119 cb 30 cb 13 cb 1032,0 hPa 0,0 mm 8,0 km/h (2 Bft) SO 135 0 min 0 min 0,000 mm 0,0 UV-I 0 W/m -12,6 C -13,0 C 11,3 km/h (2 Bft) 100 %
21.01.2024 03:40 1,4 C -8,4 C 2,8 C 3,9 C -8,9 C -8,4 C -8,0 C -8,3 C -8,3 C 0,0 C 0,0 C 1,1 C 65 % 72 % 59 % 0 lf 1 lf 200 cb 119 cb 30 cb 13 cb 1031,9 hPa 0,0 mm 8,0 km/h (2 Bft) SO 135 0 min 0 min 0,000 mm 0,0 UV-I 0 W/m -12,5 C -12,6 C 12,9 km/h (3 Bft) 100 %
21.01.2024 03:35 1,4 C -8,0 C 2,8 C 3,9 C -9,4 C -8,4 C -8,0 C -8,3 C -8,3 C 0,0 C 0,0 C 1,1 C 65 % 72 % 59 % 0 lf 1 lf 200 cb 119 cb 30 cb 13 cb 1032,0 hPa 0,0 mm 9,7 km/h (2 Bft) SO 135 0 min 0 min 0,000 mm 0,0 UV-I 0 W/m -12,1 C -12,8 C 12,9 km/h (3 Bft) 100 %
21.01.2024 03:30 1,4 C -8,4 C 2,8 C 3,9 C -9,4 C -8,4 C -8,2 C -8,3 C -8,3 C 0,0 C 0,0 C 1,1 C 65 % 72 % 59 % 0 lf 1 lf 200 cb 119 cb 30 cb 13 cb 1031,9 hPa 0,0 mm 8,0 km/h (2 Bft) SO 135 0 min 0 min 0,000 mm 0,0 UV-I 0 W/m -12,5 C -12,6 C 14,5 km/h (3 Bft) 100 %
21.01.2024 03:25 1,4 C -8,2 C 2,8 C 3,9 C -9,4 C -8,2 C -8,0 C -8,3 C -8,3 C 0,0 C 0,0 C 1,1 C 65 % 72 % 60 % 0 lf 1 lf 200 cb 119 cb 30 cb 13 cb 1031,9 hPa 0,0 mm 6,4 km/h (2 Bft) SO 135 0 min 0 min 0,000 mm 0,0 UV-I 0 W/m -12,3 C -11,7 C 11,3 km/h (2 Bft) 98 %
21.01.2024 03:20 1,5 C -8,0 C 2,8 C 3,9 C -9,4 C -8,1 C -7,8 C -8,3 C -8,3 C 0,0 C 0,0 C 1,1 C 65 % 71 % 60 % 0 lf 1 lf 200 cb 118 cb 30 cb 13 cb 1032,0 hPa 0,0 mm 4,8 km/h (1 Bft) S-SO 157 0 min 0 min 0,000 mm 0,0 UV-I 0 W/m -12,3 C -10,5 C 8,0 km/h (2 Bft) 100 %
21.01.2024 03:15 1,5 C -8,1 C 2,8 C 3,9 C -9,4 C -8,3 C -8,1 C -8,3 C -8,3 C 0,0 C 0,0 C 1,1 C 65 % 72 % 61 % 0 lf 1 lf 200 cb 118 cb 30 cb 13 cb 1032,0 hPa 0,0 mm 4,8 km/h (1 Bft) S-SO 157 0 min 0 min 0,000 mm 0,0 UV-I 0 W/m -12,2 C -10,7 C 6,4 km/h (2 Bft) 100 %
21.01.2024 03:10 1,5 C -8,3 C 2,8 C 3,9 C -9,4 C -8,6 C -8,3 C -7,8 C -7,8 C 0,0 C 0,0 C 1,1 C 65 % 74 % 61 % 0 lf 1 lf 200 cb 118 cb 30 cb 13 cb 1032,0 hPa 0,0 mm 4,8 km/h (1 Bft) S-SO 157 0 min 0 min 0,000 mm 0,0 UV-I 0 W/m -12,1 C -10,9 C 6,4 km/h (2 Bft) 100 %
21.01.2024 03:05 1,5 C -8,6 C 2,8 C 3,9 C -9,4 C -8,7 C -8,5 C -7,8 C -7,8 C 0,0 C 0,0 C 1,1 C 65 % 75 % 61 % 0 lf 1 lf 200 cb 118 cb 30 cb 13 cb 1032,1 hPa 0,0 mm 4,8 km/h (1 Bft) S-SO 157 0 min 0 min 0,000 mm 0,0 UV-I 0 W/m -12,2 C -11,2 C 8,0 km/h (2 Bft) 100 %
21.01.2024 03:00 1,6 C -8,7 C 2,8 C 3,9 C -9,4 C -8,8 C -8,7 C -7,8 C -7,8 C 0,0 C 0,0 C 1,1 C 65 % 76 % 61 % 0 lf 1 lf 200 cb 117 cb 30 cb 13 cb 1032,2 hPa 0,0 mm 4,8 km/h (1 Bft) S-SO 157 0 min 0 min 0,000 mm 0,0 UV-I 0 W/m -12,1 C -11,3 C 9,7 km/h (2 Bft) 100 %
21.01.2024 02:55 1,6 C -8,8 C 2,8 C 3,9 C -9,4 C -8,9 C -8,8 C -7,8 C -7,8 C 0,0 C 0,0 C 1,1 C 65 % 77 % 62 % 0 lf 1 lf 200 cb 117 cb 30 cb 13 cb 1032,2 hPa 0,0 mm 6,4 km/h (2 Bft) S-SO 157 0 min 0 min 0,000 mm 0,0 UV-I 0 W/m -12,1 C -12,3 C 8,0 km/h (2 Bft) 100 %
21.01.2024 02:50 1,6 C -8,8 C 2,8 C 3,9 C -9,4 C -8,9 C -8,8 C -7,8 C -7,8 C 0,0 C 0,0 C 1,1 C 65 % 77 % 62 % 0 lf 1 lf 200 cb 117 cb 30 cb 13 cb 1032,2 hPa 0,0 mm 9,7 km/h (2 Bft) SO 135 0 min 0 min 0,000 mm 0,0 UV-I 0 W/m -12,1 C -13,7 C 14,5 km/h (3 Bft) 100 %
21.01.2024 02:45 1,6 C -8,8 C 2,8 C 3,9 C -9,4 C -8,8 C -8,7 C -7,8 C -7,8 C 0,0 C 0,0 C 1,1 C 65 % 77 % 62 % 0 lf 1 lf 200 cb 117 cb 30 cb 13 cb 1032,3 hPa 0,0 mm 9,7 km/h (2 Bft) SO 135 0 min 0 min 0,000 mm 0,0 UV-I 0 W/m -12,1 C -13,7 C 14,5 km/h (3 Bft) 100 %
21.01.2024 02:40 1,6 C -8,8 C 2,8 C 3,9 C -9,4 C -9,1 C -8,8 C -7,8 C -7,8 C 0,0 C 0,0 C 1,1 C 65 % 78 % 62 % 0 lf 1 lf 200 cb 117 cb 30 cb 13 cb 1032,3 hPa 0,0 mm 8,0 km/h (2 Bft) SO 135 0 min 0 min 0,000 mm 0,0 UV-I 0 W/m -11,9 C -13,1 C 12,9 km/h (3 Bft) 99 %
21.01.2024 02:35 1,7 C -9,1 C 2,8 C 3,9 C -9,4 C -9,1 C -9,1 C -7,8 C -7,8 C 0,0 C 0,0 C 1,1 C 65 % 78 % 61 % 0 lf 1 lf 200 cb 117 cb 30 cb 13 cb 1032,3 hPa 0,0 mm 8,0 km/h (2 Bft) S-SO 157 0 min 0 min 0,000 mm 0,0 UV-I 0 W/m -12,2 C -13,4 C 11,3 km/h (2 Bft) 100 %
21.01.2024 02:30 1,7 C -9,1 C 2,8 C 3,9 C -9,4 C -9,2 C -9,1 C -7,8 C -7,8 C 0,0 C 0,0 C 1,1 C 65 % 78 % 61 % 0 lf 1 lf 200 cb 117 cb 30 cb 13 cb 1032,4 hPa 0,0 mm 8,0 km/h (2 Bft) S-SO 157 0 min 0 min 0,000 mm 0,0 UV-I 0 W/m -12,2 C -13,4 C 12,9 km/h (3 Bft) 99 %
21.01.2024 02:25 1,7 C -9,1 C 2,8 C 3,9 C -9,4 C -9,1 C -8,7 C -7,8 C -7,8 C 0,0 C 0,0 C 1,1 C 65 % 77 % 61 % 0 lf 1 lf 200 cb 117 cb 30 cb 13 cb 1032,3 hPa 0,0 mm 9,7 km/h (2 Bft) SO 135 0 min 0 min 0,000 mm 0,0 UV-I 0 W/m -12,4 C -14,1 C 14,5 km/h (3 Bft) 100 %
21.01.2024 02:20 1,7 C -8,7 C 2,8 C 3,9 C -9,4 C -8,7 C -8,6 C -7,8 C -7,8 C 0,0 C 0,0 C 1,1 C 65 % 77 % 62 % 0 lf 1 lf 200 cb 117 cb 30 cb 13 cb 1032,4 hPa 0,0 mm 9,7 km/h (2 Bft) S-SO 157 0 min 0 min 0,000 mm 0,0 UV-I 0 W/m -12,0 C -13,6 C 14,5 km/h (3 Bft) 97 %
21.01.2024 02:15 1,7 C -8,6 C 2,8 C 3,9 C -9,4 C -8,8 C -8,6 C -7,8 C -7,8 C 0,0 C 0,0 C 1,1 C 65 % 78 % 62 % 0 lf 1 lf 200 cb 116 cb 30 cb 13 cb 1032,3 hPa 0,0 mm 8,0 km/h (2 Bft) S-SO 157 0 min 0 min 0,000 mm 0,0 UV-I 0 W/m -11,7 C -12,8 C 12,9 km/h (3 Bft) 99 %
21.01.2024 02:10 1,7 C -8,8 C 2,8 C 3,9 C -9,4 C -9,0 C -8,8 C -7,8 C -7,8 C 0,0 C 0,0 C 1,1 C 65 % 79 % 62 % 0 lf 1 lf 200 cb 116 cb 30 cb 13 cb 1032,3 hPa 0,0 mm 8,0 km/h (2 Bft) SO 135 0 min 0 min 0,000 mm 0,0 UV-I 0 W/m -11,8 C -13,1 C 12,9 km/h (3 Bft) 100 %
21.01.2024 02:05 1,7 C -9,0 C 2,8 C 3,9 C -8,9 C -9,1 C -9,0 C -7,8 C -7,8 C 0,0 C 0,0 C 1,1 C 66 % 79 % 62 % 0 lf 1 lf 200 cb 116 cb 30 cb 13 cb 1032,3 hPa 0,0 mm 9,7 km/h (2 Bft) SO 135 0 min 0 min 0,000 mm 0,0 UV-I 0 W/m -12,0 C -14,0 C 14,5 km/h (3 Bft) 100 %
21.01.2024 02:00 1,8 C -9,0 C 2,8 C 3,9 C -8,9 C -9,0 C -8,4 C -7,8 C -7,8 C 0,0 C 0,0 C 1,1 C 65 % 78 % 62 % 0 lf 1 lf 200 cb 116 cb 30 cb 13 cb 1032,2 hPa 0,0 mm 6,4 km/h (2 Bft) SO 135 0 min 0 min 0,025 mm 0,0 UV-I 0 W/m -12,1 C -12,6 C 11,3 km/h (2 Bft) 100 %
21.01.2024 01:55 1,8 C -8,4 C 2,8 C 3,9 C -8,9 C -8,6 C -8,3 C -7,8 C -7,8 C 0,0 C 0,0 C 1,1 C 65 % 78 % 62 % 0 lf 1 lf 200 cb 116 cb 30 cb 13 cb 1032,3 hPa 0,0 mm 8,0 km/h (2 Bft) S-SO 157 0 min 0 min 0,000 mm 0,0 UV-I 0 W/m -11,5 C -12,6 C 12,9 km/h (3 Bft) 100 %
21.01.2024 01:50 1,8 C -8,6 C 2,8 C 3,9 C -8,9 C -8,6 C -8,6 C -7,8 C -7,8 C 0,0 C 0,0 C 1,1 C 66 % 78 % 62 % 0 lf 1 lf 200 cb 115 cb 30 cb 13 cb 1032,3 hPa 0,0 mm 9,7 km/h (2 Bft) S-SO 157 0 min 0 min 0,000 mm 0,0 UV-I 0 W/m -11,7 C -13,5 C 14,5 km/h (3 Bft) 100 %
21.01.2024 01:45 1,8 C -8,6 C 2,8 C 3,9 C -8,9 C -8,6 C -8,1 C -7,8 C -7,8 C 0,0 C 0,0 C 1,1 C 66 % 78 % 62 % 0 lf 1 lf 200 cb 115 cb 30 cb 13 cb 1032,3 hPa 0,0 mm 9,7 km/h (2 Bft) S-SO 157 0 min 0 min 0,000 mm 0,0 UV-I 0 W/m -11,7 C -13,5 C 14,5 km/h (3 Bft) 100 %
21.01.2024 01:40 1,8 C -8,1 C 2,8 C 3,9 C -8,9 C -8,3 C -7,9 C -7,8 C -7,8 C 0,0 C 0,0 C 1,1 C 66 % 77 % 62 % 0 lf 1 lf 200 cb 115 cb 30 cb 13 cb 1032,3 hPa 0,0 mm 9,7 km/h (2 Bft) SO 135 0 min 0 min 0,000 mm 0,0 UV-I 0 W/m -11,4 C -12,9 C 16,1 km/h (3 Bft) 100 %
21.01.2024 01:35 1,8 C -8,3 C 2,8 C 3,9 C -8,9 C -9,2 C -8,3 C -7,8 C -7,8 C 0,0 C 0,0 C 1,1 C 66 % 80 % 61 % 0 lf 1 lf 200 cb 115 cb 30 cb 13 cb 1032,3 hPa 0,0 mm 12,9 km/h (3 Bft) S-SO 157 0 min 0 min 0,000 mm 0,0 UV-I 0 W/m -11,1 C -14,1 C 16,1 km/h (3 Bft) 100 %
21.01.2024 01:30 1,8 C -9,1 C 2,8 C 3,9 C -8,9 C -9,1 C -9,0 C -7,8 C -7,8 C 0,0 C 0,0 C 1,1 C 66 % 77 % 60 % 0 lf 1 lf 200 cb 115 cb 30 cb 13 cb 1032,4 hPa 0,0 mm 9,7 km/h (2 Bft) SO 135 0 min 0 min 0,000 mm 0,0 UV-I 0 W/m -12,4 C -14,1 C 14,5 km/h (3 Bft) 100 %
21.01.2024 01:25 1,9 C -9,0 C 2,8 C 3,9 C -8,9 C -9,0 C -8,3 C -7,8 C -7,8 C 0,0 C 0,0 C 1,1 C 66 % 77 % 61 % 0 lf 1 lf 200 cb 115 cb 30 cb 13 cb 1032,3 hPa 0,0 mm 12,9 km/h (3 Bft) SO 135 0 min 0 min 0,000 mm 0,0 UV-I 0 W/m -12,3 C -15,0 C 16,1 km/h (3 Bft) 100 %
21.01.2024 01:20 1,9 C -8,3 C 2,8 C 3,9 C -8,9 C -8,3 C -7,4 C -7,8 C -7,8 C 0,0 C 0,0 C 1,1 C 66 % 76 % 62 % 0 lf 1 lf 200 cb 115 cb 30 cb 13 cb 1032,3 hPa 0,0 mm 9,7 km/h (2 Bft) SO 135 0 min 0 min 0,000 mm 0,0 UV-I 0 W/m -11,8 C -13,1 C 14,5 km/h (3 Bft) 98 %
21.01.2024 01:15 1,9 C -7,4 C 2,8 C 3,9 C -8,9 C -8,1 C -7,4 C -7,8 C -7,8 C 0,0 C 0,0 C 1,1 C 66 % 76 % 62 % 0 lf 1 lf 200 cb 115 cb 30 cb 13 cb 1032,6 hPa 0,0 mm 8,0 km/h (2 Bft) SO 135 0 min 0 min 0,000 mm 0,0 UV-I 0 W/m -10,9 C -11,4 C 16,1 km/h (3 Bft) 98 %
21.01.2024 01:10 1,9 C -8,1 C 2,8 C 3,9 C -8,9 C -8,6 C -8,1 C -7,8 C -7,8 C 0,0 C 0,0 C 1,1 C 66 % 79 % 61 % 0 lf 1 lf 200 cb 115 cb 30 cb 13 cb 1032,5 hPa 0,0 mm 9,7 km/h (2 Bft) SO 135 0 min 0 min 0,000 mm 0,0 UV-I 0 W/m -11,1 C -12,9 C 14,5 km/h (3 Bft) 95 %
21.01.2024 01:05 1,9 C -8,4 C 2,8 C 3,9 C -8,9 C -8,5 C -8,2 C -7,2 C -7,2 C 0,0 C 0,0 C 1,1 C 66 % 77 % 60 % 0 lf 1 lf 200 cb 115 cb 30 cb 13 cb 1032,5 hPa 0,0 mm 6,4 km/h (2 Bft) SO 135 0 min 0 min 0,000 mm 0,0 UV-I 0 W/m -11,7 C -11,9 C 11,3 km/h (2 Bft) 98 %
21.01.2024 01:00 1,9 C -8,2 C 2,8 C 3,9 C -8,9 C -8,3 C -8,1 C -7,2 C -7,2 C 0,0 C 0,0 C 1,1 C 66 % 76 % 60 % 0 lf 1 lf 200 cb 115 cb 30 cb 13 cb 1032,6 hPa 0,0 mm 9,7 km/h (2 Bft) SO 135 0 min 0 min 0,025 mm 0,0 UV-I 0 W/m -11,7 C -13,0 C 12,9 km/h (3 Bft) 97 %
21.01.2024 00:55 1,9 C -8,3 C 2,8 C 3,9 C -8,9 C -9,1 C -8,3 C -7,2 C -7,2 C 0,0 C 0,0 C 1,1 C 66 % 78 % 59 % 0 lf 1 lf 200 cb 114 cb 30 cb 13 cb 1032,6 hPa 0,0 mm 8,0 km/h (2 Bft) SO 135 0 min 0 min 0,000 mm 0,0 UV-I 0 W/m -11,4 C -12,5 C 14,5 km/h (3 Bft) 98 %
21.01.2024 00:50 1,9 C -9,1 C 2,8 C 3,9 C -8,9 C -9,3 C -9,0 C -7,2 C -7,2 C 0,0 C 0,0 C 1,1 C 66 % 78 % 58 % 0 lf 1 lf 200 cb 114 cb 30 cb 13 cb 1032,7 hPa 0,0 mm 8,0 km/h (2 Bft) SO 135 0 min 0 min 0,000 mm 0,0 UV-I 0 W/m -12,2 C -13,4 C 12,9 km/h (3 Bft) 99 %
21.01.2024 00:45 1,9 C -9,0 C 2,8 C 3,9 C -8,9 C -9,0 C -8,8 C -7,2 C -7,2 C 0,0 C 0,0 C 1,1 C 66 % 76 % 58 % 0 lf 1 lf 200 cb 114 cb 30 cb 13 cb 1032,7 hPa 0,0 mm 8,0 km/h (2 Bft) SO 135 0 min 0 min 0,000 mm 0,0 UV-I 0 W/m -12,4 C -13,3 C 12,9 km/h (3 Bft) 97 %
21.01.2024 00:40 2,0 C -8,8 C 2,8 C 3,9 C -8,9 C -9,1 C -8,8 C -7,2 C -7,2 C 0,0 C 0,0 C 1,1 C 66 % 78 % 58 % 0 lf 1 lf 200 cb 114 cb 30 cb 13 cb 1032,7 hPa 0,0 mm 6,4 km/h (2 Bft) SO 135 0 min 0 min 0,000 mm 0,0 UV-I 0 W/m -11,9 C -12,3 C 11,3 km/h (2 Bft) 98 %
21.01.2024 00:35 2,0 C -9,0 C 2,8 C 3,9 C -8,3 C -9,0 C -8,4 C -7,2 C -7,2 C 0,0 C 0,0 C 1,1 C 66 % 75 % 57 % 0 lf 1 lf 200 cb 114 cb 30 cb 13 cb 1032,6 hPa 0,0 mm 4,8 km/h (1 Bft) SO 135 0 min 0 min 0,000 mm 0,0 UV-I 0 W/m -12,6 C -11,7 C 8,0 km/h (2 Bft) 100 %
21.01.2024 00:30 2,0 C -8,4 C 2,8 C 3,9 C -8,3 C -8,4 C -7,8 C -7,2 C -7,2 C 0,0 C 0,0 C 1,1 C 66 % 72 % 57 % 0 lf 1 lf 200 cb 114 cb 30 cb 13 cb 1032,6 hPa 0,0 mm 6,4 km/h (2 Bft) SO 135 0 min 0 min 0,000 mm 0,0 UV-I 0 W/m -12,5 C -11,9 C 11,3 km/h (2 Bft) 100 %
21.01.2024 00:25 2,0 C -7,8 C 2,8 C 3,9 C -8,3 C -7,8 C -7,6 C -7,2 C -7,2 C 0,0 C 0,0 C 1,1 C 66 % 72 % 58 % 0 lf 1 lf 200 cb 114 cb 30 cb 13 cb 1032,8 hPa 0,0 mm 9,7 km/h (2 Bft) O-SO 112 0 min 0 min 0,000 mm 0,0 UV-I 0 W/m -11,9 C -12,5 C 12,9 km/h (3 Bft) 99 %
21.01.2024 00:20 2,1 C -7,6 C 2,8 C 3,9 C -8,9 C -7,9 C -7,6 C -7,2 C -7,2 C 0,0 C 0,0 C 1,1 C 66 % 73 % 59 % 0 lf 1 lf 200 cb 113 cb 30 cb 13 cb 1032,7 hPa 0,0 mm 9,7 km/h (2 Bft) O-SO 112 0 min 0 min 0,000 mm 0,0 UV-I 0 W/m -11,6 C -12,3 C 12,9 km/h (3 Bft) 99 %
21.01.2024 00:15 2,1 C -7,9 C 2,8 C 3,9 C -8,9 C -8,5 C -7,9 C -7,2 C -7,2 C 0,0 C 0,0 C 1,1 C 66 % 74 % 58 % 0 lf 1 lf 200 cb 113 cb 30 cb 13 cb 1032,7 hPa 0,0 mm 11,3 km/h (2 Bft) O-SO 112 0 min 0 min 0,000 mm 0,0 UV-I 0 W/m -11,7 C -13,2 C 12,9 km/h (3 Bft) 99 %
21.01.2024 00:10 2,1 C -8,5 C 2,8 C 3,9 C -8,9 C -8,7 C -8,5 C -7,2 C -7,2 C 0,0 C 0,0 C 1,1 C 66 % 75 % 58 % 0 lf 1 lf 200 cb 113 cb 30 cb 13 cb 1032,7 hPa 0,0 mm 11,3 km/h (2 Bft) SO 135 0 min 0 min 0,000 mm 0,0 UV-I 0 W/m -12,1 C -13,9 C 14,5 km/h (3 Bft) 96 %
21.01.2024 00:05 2,1 C -8,7 C 2,8 C 3,9 C -8,9 C -8,8 C -8,6 C -7,2 C -7,2 C 0,0 C 0,0 C 1,1 C 66 % 75 % 57 % 0 lf 1 lf 200 cb 113 cb 30 cb 13 cb 1032,8 hPa 0,0 mm 8,0 km/h (2 Bft) O-SO 112 0 min 0 min 0,000 mm 0,0 UV-I 0 W/m -12,3 C -13,0 C 12,9 km/h (3 Bft) 95 %
21.01.2024 00:00 2,1 C -8,8 C 2,8 C 3,9 C -8,9 C -8,9 C -8,8 C -7,2 C -7,2 C 0,0 C 0,0 C 1,1 C 66 % 75 % 57 % 0 lf 1 lf 200 cb 113 cb 30 cb 13 cb 1032,8 hPa 0,0 mm 6,4 km/h (2 Bft) O-SO 112 0 min 0 min 0,025 mm 0,0 UV-I 0 W/m -12,4 C -12,3 C 11,3 km/h (2 Bft) 96 %
20.01.2024 23:55 2,1 C -8,9 C 2,8 C 3,9 C -8,3 C -8,9 C -8,7 C -7,2 C -7,2 C 0,0 C 0,0 C 1,1 C 66 % 75 % 56 % 0 lf 1 lf 200 cb 113 cb 30 cb 13 cb 1032,6 hPa 0,0 mm 6,4 km/h (2 Bft) SO 135 0 min 0 min 0,000 mm 0,0 UV-I 0 W/m -12,5 C -12,5 C 8,0 km/h (2 Bft) 97 %
20.01.2024 23:50 2,1 C -8,7 C 2,8 C 3,9 C -8,3 C -8,7 C -8,3 C -7,2 C -7,2 C 0,0 C 0,0 C 1,1 C 66 % 74 % 56 % 0 lf 1 lf 200 cb 113 cb 30 cb 13 cb 1032,7 hPa 0,0 mm 6,4 km/h (2 Bft) SO 135 0 min 0 min 0,000 mm 0,0 UV-I 0 W/m -12,5 C -12,2 C 9,7 km/h (2 Bft) 99 %
20.01.2024 23:45 2,1 C -8,4 C 2,8 C 3,9 C -8,3 C -8,4 C -8,1 C -7,2 C -7,2 C 0,0 C 0,0 C 1,1 C 66 % 74 % 56 % 0 lf 1 lf 200 cb 113 cb 30 cb 13 cb 1032,7 hPa 0,0 mm 8,0 km/h (2 Bft) SO 135 0 min 0 min 0,000 mm 0,0 UV-I 0 W/m -12,2 C -12,6 C 11,3 km/h (2 Bft) 100 %
20.01.2024 23:40 2,1 C -8,1 C 2,8 C 3,9 C -7,8 C -8,1 C -8,0 C -7,2 C -7,2 C 0,0 C 0,0 C 1,1 C 66 % 74 % 56 % 0 lf 1 lf 200 cb 113 cb 30 cb 13 cb 1032,7 hPa 0,0 mm 6,4 km/h (2 Bft) SO 135 0 min 0 min 0,000 mm 0,0 UV-I 0 W/m -11,9 C -11,5 C 8,0 km/h (2 Bft) 100 %
20.01.2024 23:35 2,1 C -8,0 C 2,8 C 3,9 C -7,8 C -8,0 C -7,9 C -7,2 C -7,2 C 0,0 C 0,0 C 1,1 C 66 % 75 % 56 % 0 lf 1 lf 200 cb 113 cb 30 cb 13 cb 1032,8 hPa 0,0 mm 6,4 km/h (2 Bft) SO 135 0 min 0 min 0,000 mm 0,0 UV-I 0 W/m -11,6 C -11,4 C 11,3 km/h (2 Bft) 99 %
20.01.2024 23:30 2,2 C -7,9 C 2,8 C 3,9 C -7,8 C -7,9 C -7,9 C -7,2 C -7,2 C 0,0 C 0,0 C 1,1 C 66 % 75 % 56 % 0 lf 1 lf 200 cb 113 cb 30 cb 13 cb 1032,8 hPa 0,0 mm 6,4 km/h (2 Bft) SO 135 0 min 0 min 0,000 mm 0,0 UV-I 0 W/m -11,5 C -11,3 C 11,3 km/h (2 Bft) 100 %
20.01.2024 23:25 2,2 C -7,9 C 2,8 C 3,9 C -7,2 C -7,9 C -7,7 C -7,2 C -7,2 C 0,0 C 0,0 C 1,1 C 66 % 73 % 55 % 0 lf 1 lf 200 cb 113 cb 30 cb 13 cb 1032,8 hPa 0,0 mm 6,4 km/h (2 Bft) SO 135 0 min 0 min 0,000 mm 0,0 UV-I 0 W/m -11,9 C -11,3 C 8,0 km/h (2 Bft) 100 %
20.01.2024 23:20 2,2 C -7,7 C 2,8 C 3,9 C -7,2 C -7,7 C -6,8 C -7,2 C -7,2 C 0,0 C 0,0 C 1,1 C 66 % 71 % 55 % 0 lf 1 lf 200 cb 113 cb 30 cb 13 cb 1032,8 hPa 0,0 mm 4,8 km/h (1 Bft) SO 135 0 min 0 min 0,000 mm 0,0 UV-I 0 W/m -12,0 C -10,2 C 8,0 km/h (2 Bft) 100 %
20.01.2024 23:15 2,2 C -6,8 C 2,8 C 3,9 C -6,7 C -6,8 C -6,2 C -7,2 C -7,2 C 0,0 C 0,0 C 1,1 C 66 % 71 % 56 % 0 lf 1 lf 200 cb 113 cb 30 cb 13 cb 1032,9 hPa 0,0 mm 4,8 km/h (1 Bft) O-SO 112 0 min 0 min 0,000 mm 0,0 UV-I 0 W/m -11,2 C -9,2 C 6,4 km/h (2 Bft) 98 %
20.01.2024 23:10 2,2 C -6,2 C 2,8 C 3,9 C -6,7 C -6,2 C -5,7 C -7,2 C -7,2 C 0,0 C 0,0 C 1,1 C 66 % 72 % 58 % 0 lf 1 lf 200 cb 113 cb 30 cb 13 cb 1032,8 hPa 0,0 mm 4,8 km/h (1 Bft) O 90 0 min 0 min 0,000 mm 0,0 UV-I 0 W/m -10,4 C -8,5 C 6,4 km/h (2 Bft) 96 %
20.01.2024 23:05 2,2 C -5,7 C 2,8 C 3,9 C -6,7 C -5,7 C -5,7 C -7,2 C -7,2 C 0,0 C 0,0 C 1,1 C 67 % 72 % 58 % 0 lf 1 lf 200 cb 113 cb 30 cb 13 cb 1032,8 hPa 0,0 mm 4,8 km/h (1 Bft) O 90 0 min 0 min 0,000 mm 0,0 UV-I 0 W/m -9,9 C -7,9 C 6,4 km/h (2 Bft) 98 %
20.01.2024 23:00 2,2 C -5,7 C 2,8 C 3,9 C -6,7 C -5,8 C -5,6 C -7,2 C -7,2 C 0,0 C 0,0 C 1,1 C 67 % 73 % 58 % 0 lf 1 lf 200 cb 113 cb 30 cb 13 cb 1032,8 hPa 0,0 mm 4,8 km/h (1 Bft) O 90 0 min 0 min 0,025 mm 0,0 UV-I 0 W/m -9,7 C -7,9 C 6,4 km/h (2 Bft) 96 %
20.01.2024 22:55 2,2 C -5,8 C 2,8 C 3,9 C -6,7 C -6,1 C -5,8 C -7,2 C -7,2 C 0,0 C 0,0 C 1,1 C 67 % 74 % 58 % 0 lf 1 lf 200 cb 113 cb 30 cb 13 cb 1032,8 hPa 0,0 mm 4,8 km/h (1 Bft) O-SO 112 0 min 0 min 0,000 mm 0,0 UV-I 0 W/m -9,7 C -8,1 C 6,4 km/h (2 Bft) 96 %
20.01.2024 22:50 2,2 C -6,0 C 2,8 C 3,9 C -6,7 C -6,5 C -6,0 C -6,7 C -6,7 C 0,0 C 0,0 C 1,1 C 67 % 75 % 57 % 0 lf 1 lf 200 cb 113 cb 30 cb 13 cb 1032,8 hPa 0,0 mm 4,8 km/h (1 Bft) O-SO 112 0 min 0 min 0,000 mm 0,0 UV-I 0 W/m -9,7 C -8,3 C 6,4 km/h (2 Bft) 97 %
20.01.2024 22:45 2,3 C -6,5 C 2,8 C 3,9 C -6,1 C -6,6 C -6,5 C -6,7 C -6,7 C 0,0 C 0,0 C 1,1 C 67 % 76 % 57 % 0 lf 1 lf 200 cb 113 cb 30 cb 13 cb 1033,1 hPa 0,0 mm 4,8 km/h (1 Bft) O-SO 112 0 min 0 min 0,000 mm 0,0 UV-I 0 W/m -10,0 C -8,8 C 6,4 km/h (2 Bft) 100 %
20.01.2024 22:40 2,2 C -6,5 C 2,8 C 3,9 C -6,1 C -6,5 C -6,4 C -6,7 C -6,7 C 0,0 C 0,0 C 1,1 C 67 % 75 % 57 % 0 lf 1 lf 200 cb 113 cb 30 cb 13 cb 1032,9 hPa 0,0 mm 4,8 km/h (1 Bft) O-SO 112 0 min 0 min 0,000 mm 0,0 UV-I 0 W/m -10,2 C -8,8 C 6,4 km/h (2 Bft) 100 %
20.01.2024 22:35 2,3 C -6,4 C 2,8 C 3,9 C -6,1 C -6,5 C -6,3 C -6,7 C -6,7 C 0,0 C 0,0 C 1,1 C 67 % 76 % 56 % 0 lf 1 lf 200 cb 113 cb 30 cb 13 cb 1032,9 hPa 0,0 mm 4,8 km/h (1 Bft) O-SO 112 0 min 0 min 0,000 mm 0,0 UV-I 0 W/m -9,9 C -8,7 C 8,0 km/h (2 Bft) 100 %
20.01.2024 22:30 2,3 C -6,3 C 2,8 C 3,9 C -6,1 C -6,3 C -6,1 C -6,7 C -6,7 C 0,0 C 0,0 C 1,1 C 67 % 75 % 56 % 0 lf 1 lf 200 cb 113 cb 30 cb 13 cb 1032,8 hPa 0,0 mm 6,4 km/h (2 Bft) SO 135 0 min 0 min 0,000 mm 0,0 UV-I 0 W/m -10,0 C -9,5 C 8,0 km/h (2 Bft) 100 %
20.01.2024 22:25 2,3 C -6,1 C 2,8 C 3,9 C -5,6 C -6,2 C -6,1 C -6,7 C -6,7 C 0,0 C 0,0 C 1,1 C 67 % 75 % 55 % 0 lf 1 lf 200 cb 113 cb 30 cb 13 cb 1032,9 hPa 0,0 mm 8,0 km/h (2 Bft) O-SO 112 0 min 0 min 0,000 mm 0,0 UV-I 0 W/m -9,8 C -9,9 C 11,3 km/h (2 Bft) 100 %
20.01.2024 22:20 2,3 C -6,2 C 2,8 C 3,9 C -5,6 C -6,3 C -6,2 C -6,7 C -6,7 C 0,0 C 0,0 C 1,1 C 67 % 76 % 55 % 0 lf 1 lf 200 cb 113 cb 30 cb 13 cb 1032,8 hPa 0,0 mm 4,8 km/h (1 Bft) O 90 0 min 0 min 0,000 mm 0,0 UV-I 0 W/m -9,7 C -8,5 C 6,4 km/h (2 Bft) 100 %
20.01.2024 22:15 2,3 C -6,3 C 2,8 C 3,9 C -5,0 C -6,3 C -6,2 C -6,7 C -6,7 C 0,0 C 0,0 C 1,1 C 67 % 75 % 55 % 0 lf 1 lf 200 cb 113 cb 30 cb 13 cb 1032,9 hPa 0,0 mm 4,8 km/h (1 Bft) O-SO 112 0 min 0 min 0,000 mm 0,0 UV-I 0 W/m -10,0 C -8,6 C 6,4 km/h (2 Bft) 100 %
20.01.2024 22:10 2,3 C -6,2 C 2,8 C 3,9 C -5,0 C -6,2 C -5,2 C -6,7 C -6,7 C 0,0 C 0,0 C 1,1 C 67 % 74 % 54 % 0 lf 1 lf 200 cb 113 cb 30 cb 13 cb 1032,9 hPa 0,0 mm 4,8 km/h (1 Bft) O-SO 112 0 min 0 min 0,000 mm 0,0 UV-I 0 W/m -10,1 C -8,5 C 6,4 km/h (2 Bft) 100 %
20.01.2024 22:05 2,3 C -5,1 C 2,8 C 3,9 C -4,4 C -5,1 C -4,7 C -6,7 C -6,7 C 0,0 C 0,0 C 1,1 C 67 % 72 % 55 % 0 lf 1 lf 200 cb 113 cb 30 cb 13 cb 1032,8 hPa 0,0 mm 4,8 km/h (1 Bft) O 90 0 min 0 min 0,000 mm 0,0 UV-I 0 W/m -9,3 C -7,3 C 9,7 km/h (2 Bft) 100 %
20.01.2024 22:00 2,3 C -4,7 C 2,8 C 3,9 C -4,4 C -4,7 C -4,2 C -6,1 C -6,1 C 0,0 C 0,0 C 1,1 C 67 % 73 % 56 % 0 lf 1 lf 200 cb 113 cb 30 cb 13 cb 1032,8 hPa 0,0 mm 1,6 km/h (1 Bft) O 90 0 min 0 min 0,025 mm 0,0 UV-I 0 W/m -8,8 C -4,7 C 4,8 km/h (1 Bft) 99 %
20.01.2024 21:55 2,3 C -4,2 C 2,8 C 3,9 C -4,4 C -4,2 C -3,6 C -6,1 C -6,1 C 0,0 C 0,0 C 1,1 C 67 % 71 % 55 % 0 lf 1 lf 200 cb 113 cb 30 cb 13 cb 1032,8 hPa 0,0 mm 1,6 km/h (1 Bft) O 90 0 min 0 min 0,000 mm 0,0 UV-I 0 W/m -8,7 C -4,2 C 3,2 km/h (1 Bft) 99 %
20.01.2024 21:50 2,3 C -3,7 C 2,8 C 3,9 C -4,4 C -3,7 C -3,6 C -6,1 C -6,1 C 0,0 C 0,0 C 1,1 C 67 % 71 % 56 % 0 lf 1 lf 200 cb 113 cb 30 cb 13 cb 1033,0 hPa 0,0 mm 1,6 km/h (1 Bft) O 90 0 min 0 min 0,000 mm 0,0 UV-I 0 W/m -8,2 C -3,7 C 3,2 km/h (1 Bft) 100 %
20.01.2024 21:45 2,3 C -3,7 C 2,8 C 3,9 C -3,9 C -3,9 C -3,7 C -6,1 C -6,1 C 0,0 C 0,0 C 1,1 C 67 % 72 % 55 % 0 lf 1 lf 200 cb 113 cb 30 cb 13 cb 1032,9 hPa 0,0 mm 0,0 km/h (0 Bft) O 90 0 min 0 min 0,000 mm 0,0 UV-I 0 W/m -8,0 C -3,7 C 3,2 km/h (1 Bft) 100 %
20.01.2024 21:40 2,3 C -3,8 C 2,8 C 3,9 C -3,9 C -3,8 C -3,6 C -6,1 C -6,1 C 0,0 C 0,0 C 1,1 C 67 % 71 % 55 % 0 lf 1 lf 200 cb 113 cb 30 cb 13 cb 1032,9 hPa 0,0 mm 1,6 km/h (1 Bft) O 90 0 min 0 min 0,000 mm 0,0 UV-I 0 W/m -8,3 C -3,8 C 3,2 km/h (1 Bft) 100 %
20.01.2024 21:35 2,3 C -3,6 C 2,8 C 3,9 C -3,9 C -3,9 C -3,6 C -6,1 C -6,1 C 0,0 C 0,0 C 1,1 C 67 % 72 % 54 % 0 lf 1 lf 200 cb 113 cb 30 cb 13 cb 1032,8 hPa 0,0 mm 1,6 km/h (1 Bft) O 90 0 min 0 min 0,000 mm 0,0 UV-I 0 W/m -7,9 C -3,6 C 4,8 km/h (1 Bft) 100 %
20.01.2024 21:30 2,3 C -3,8 C 2,8 C 3,9 C -3,9 C -3,8 C -3,7 C -5,6 C -6,1 C 0,0 C 0,0 C 1,1 C 67 % 71 % 54 % 0 lf 1 lf 200 cb 113 cb 30 cb 13 cb 1032,8 hPa 0,0 mm 3,2 km/h (1 Bft) O 90 0 min 0 min 0,000 mm 0,0 UV-I 0 W/m -8,3 C -3,8 C 4,8 km/h (1 Bft) 100 %
20.01.2024 21:25 2,3 C -3,7 C 2,8 C 3,9 C -3,3 C -3,7 C -3,4 C -5,6 C -5,6 C 0,0 C 0,0 C 1,1 C 67 % 70 % 53 % 0 lf 1 lf 200 cb 113 cb 30 cb 13 cb 1032,9 hPa 0,0 mm 3,2 km/h (1 Bft) O 90 0 min 0 min 0,000 mm 0,0 UV-I 0 W/m -8,4 C -3,7 C 6,4 km/h (2 Bft) 100 %
20.01.2024 21:20 2,4 C -3,4 C 2,8 C 3,9 C -3,3 C -3,4 C -2,8 C -5,6 C -5,6 C 0,0 C 0,0 C 1,1 C 67 % 69 % 53 % 0 lf 1 lf 200 cb 113 cb 30 cb 13 cb 1032,9 hPa 0,0 mm 1,6 km/h (1 Bft) O 90 0 min 0 min 0,000 mm 0,0 UV-I 0 W/m -8,2 C -3,4 C 4,8 km/h (1 Bft) 99 %
20.01.2024 21:15 2,4 C -2,9 C 2,8 C 3,9 C -3,3 C -3,0 C -2,9 C -5,6 C -5,6 C 0,0 C 0,0 C 1,1 C 67 % 69 % 53 % 0 lf 1 lf 200 cb 113 cb 30 cb 13 cb 1032,8 hPa 0,0 mm 1,6 km/h (1 Bft) O 90 0 min 0 min 0,000 mm 0,0 UV-I 0 W/m -7,8 C -2,9 C 4,8 km/h (1 Bft) 99 %
20.01.2024 21:10 2,3 C -3,0 C 2,8 C 3,9 C -3,3 C -3,1 C -2,9 C -5,6 C -5,6 C 0,0 C 0,0 C 1,1 C 67 % 69 % 53 % 0 lf 2 lf 200 cb 113 cb 30 cb 13 cb 1032,9 hPa 0,0 mm 3,2 km/h (1 Bft) O 90 0 min 0 min 0,000 mm 0,0 UV-I 0 W/m -7,9 C -3,0 C 6,4 km/h (2 Bft) 100 %
20.01.2024 21:05 2,4 C -3,1 C 2,8 C 3,9 C -2,8 C -3,2 C -3,1 C -5,6 C -5,6 C 0,0 C 0,0 C 1,1 C 67 % 69 % 52 % 0 lf 1 lf 200 cb 113 cb 30 cb 13 cb 1032,8 hPa 0,0 mm 6,4 km/h (2 Bft) O 90 0 min 0 min 0,000 mm 0,0 UV-I 0 W/m -8,0 C -5,8 C 9,7 km/h (2 Bft) 97 %
20.01.2024 21:00 2,4 C -3,2 C 2,8 C 3,9 C -2,8 C -3,2 C -2,7 C -5,0 C -5,0 C 0,0 C 0,0 C 1,1 C 67 % 69 % 52 % 0 lf 2 lf 200 cb 113 cb 30 cb 13 cb 1032,9 hPa 0,0 mm 3,2 km/h (1 Bft) O 90 0 min 0 min 0,025 mm 0,0 UV-I 0 W/m -8,1 C -3,2 C 6,4 km/h (2 Bft) 100 %
20.01.2024 20:55 2,4 C -2,7 C 2,8 C 3,9 C -2,8 C -2,7 C -2,4 C -5,0 C -5,0 C 0,0 C 0,0 C 1,1 C 67 % 68 % 52 % 0 lf 2 lf 200 cb 113 cb 30 cb 13 cb 1032,8 hPa 0,0 mm 0,0 km/h (0 Bft) NW 315 0 min 0 min 0,000 mm 0,0 UV-I 0 W/m -7,8 C -2,7 C 1,6 km/h (1 Bft) 100 %
20.01.2024 20:50 2,4 C -2,3 C 2,8 C 3,9 C -2,2 C -2,3 C -2,1 C -5,0 C -5,0 C 0,0 C 0,0 C 1,1 C 67 % 67 % 53 % 0 lf 2 lf 200 cb 113 cb 30 cb 13 cb 1032,7 hPa 0,0 mm 0,0 km/h (0 Bft) NW 315 0 min 0 min 0,000 mm 0,0 UV-I 0 W/m -7,6 C -2,3 C 1,6 km/h (1 Bft) 99 %
20.01.2024 20:45 2,4 C -2,1 C 2,8 C 3,9 C -2,2 C -2,3 C -2,0 C -5,0 C -5,0 C 0,0 C 0,0 C 1,1 C 67 % 66 % 53 % 0 lf 2 lf 200 cb 113 cb 30 cb 13 cb 1032,6 hPa 0,0 mm 1,6 km/h (1 Bft) W 270 0 min 0 min 0,000 mm 0,0 UV-I 0 W/m -7,6 C -2,1 C 8,0 km/h (2 Bft) 100 %
20.01.2024 20:40 2,4 C -2,2 C 2,8 C 3,9 C -2,2 C -2,3 C -2,2 C -4,4 C -4,4 C 0,0 C 0,0 C 1,1 C 67 % 67 % 53 % 0 lf 1 lf 200 cb 113 cb 30 cb 13 cb 1032,7 hPa 0,0 mm 4,8 km/h (1 Bft) W 270 0 min 0 min 0,000 mm 0,0 UV-I 0 W/m -7,5 C -4,0 C 11,3 km/h (2 Bft) 100 %
20.01.2024 20:35 2,4 C -2,2 C 2,8 C 3,9 C -2,2 C -2,2 C -1,9 C -4,4 C -4,4 C 0,0 C 0,0 C 1,1 C 67 % 66 % 53 % 0 lf 2 lf 200 cb 113 cb 30 cb 13 cb 1032,5 hPa 0,0 mm 4,8 km/h (1 Bft) W 270 0 min 0 min 0,000 mm 0,0 UV-I 0 W/m -7,7 C -4,0 C 9,7 km/h (2 Bft) 100 %
20.01.2024 20:30 2,4 C -1,9 C 2,8 C 3,9 C -2,2 C -1,9 C -1,8 C -4,4 C -4,4 C 0,0 C 0,0 C 1,1 C 67 % 66 % 53 % 0 lf 2 lf 200 cb 113 cb 30 cb 13 cb 1032,5 hPa 0,0 mm 4,8 km/h (1 Bft) W 270 0 min 0 min 0,000 mm 0,0 UV-I 0 W/m -7,4 C -3,6 C 9,7 km/h (2 Bft) 100 %
20.01.2024 20:25 2,4 C -1,7 C 2,8 C 3,9 C -2,2 C -1,7 C -1,5 C -4,4 C -4,4 C 0,0 C 0,0 C 1,1 C 67 % 65 % 54 % 0 lf 2 lf 200 cb 113 cb 30 cb 13 cb 1032,6 hPa 0,0 mm 4,8 km/h (1 Bft) W 270 0 min 0 min 0,000 mm 0,0 UV-I 0 W/m -7,4 C -3,4 C 6,4 km/h (2 Bft) 100 %
20.01.2024 20:20 2,4 C -1,5 C 2,8 C 3,9 C -1,7 C -1,5 C -1,2 C -3,9 C -3,9 C 0,0 C 0,0 C 1,1 C 67 % 65 % 54 % 0 lf 2 lf 200 cb 113 cb 30 cb 13 cb 1032,6 hPa 0,0 mm 3,2 km/h (1 Bft) W-NW 292 0 min 0 min 0,000 mm 0,0 UV-I 0 W/m -7,2 C -1,5 C 6,4 km/h (2 Bft) 100 %
20.01.2024 20:15 2,4 C -1,2 C 2,8 C 3,9 C -1,7 C -1,2 C -1,0 C -3,9 C -3,9 C 0,0 C 0,0 C 1,1 C 67 % 64 % 54 % 0 lf 2 lf 200 cb 113 cb 30 cb 13 cb 1032,7 hPa 0,0 mm 4,8 km/h (1 Bft) W-NW 292 0 min 0 min 0,000 mm 0,0 UV-I 0 W/m -7,1 C -2,9 C 8,0 km/h (2 Bft) 100 %
20.01.2024 20:10 2,4 C -1,1 C 2,8 C 3,9 C -1,7 C -1,1 C -0,9 C -3,9 C -3,9 C 0,0 C 0,0 C 1,1 C 67 % 64 % 54 % 0 lf 2 lf 200 cb 113 cb 30 cb 13 cb 1032,6 hPa 0,0 mm 3,2 km/h (1 Bft) NW 315 0 min 0 min 0,000 mm 0,0 UV-I 0 W/m -7,0 C -1,1 C 9,7 km/h (2 Bft) 100 %
20.01.2024 20:05 2,4 C -0,9 C 2,8 C 3,9 C -1,7 C -1,3 C -0,9 C -3,9 C -3,9 C 0,0 C 0,0 C 1,1 C 67 % 64 % 54 % 0 lf 2 lf 200 cb 113 cb 30 cb 13 cb 1032,6 hPa 0,0 mm 3,2 km/h (1 Bft) W-NW 292 0 min 0 min 0,000 mm 0,0 UV-I 0 W/m -6,8 C -0,9 C 11,3 km/h (2 Bft) 100 %
20.01.2024 20:00 2,4 C -1,3 C 2,8 C 3,9 C -2,2 C -1,3 C -1,0 C -3,9 C -3,9 C 0,0 C 0,0 C 1,1 C 67 % 66 % 55 % 0 lf 3 lf 200 cb 113 cb 30 cb 13 cb 1032,7 hPa 0,0 mm 3,2 km/h (1 Bft) NW 315 0 min 0 min 0,025 mm 0,0 UV-I 0 W/m -6,8 C -1,3 C 11,3 km/h (2 Bft) 100 %
20.01.2024 19:55 2,4 C -1,0 C 2,8 C 3,9 C -2,2 C -1,0 C -0,7 C -3,9 C -3,9 C 0,0 C 0,0 C 1,1 C 67 % 64 % 55 % 0 lf 3 lf 200 cb 113 cb 30 cb 13 cb 1032,5 hPa 0,0 mm 4,8 km/h (1 Bft) W-NW 292 0 min 0 min 0,000 mm 0,0 UV-I 0 W/m -6,9 C -2,6 C 9,7 km/h (2 Bft) 100 %
20.01.2024 19:50 2,5 C -0,7 C 2,8 C 3,9 C -2,2 C -0,8 C -0,6 C -4,4 C -4,4 C 0,0 C 0,0 C 1,1 C 67 % 63 % 55 % 0 lf 2 lf 200 cb 113 cb 30 cb 13 cb 1032,4 hPa 0,0 mm 6,4 km/h (2 Bft) W-NW 292 0 min 0 min 0,000 mm 0,0 UV-I 0 W/m -6,8 C -3,0 C 14,5 km/h (3 Bft) 100 %
20.01.2024 19:45 2,5 C -0,8 C 2,8 C 3,9 C -2,2 C -0,8 C -0,7 C -4,4 C -4,4 C 0,0 C 0,0 C 1,1 C 67 % 64 % 55 % 0 lf 2 lf 200 cb 113 cb 30 cb 13 cb 1032,4 hPa 0,0 mm 6,4 km/h (2 Bft) W-NW 292 0 min 0 min 0,000 mm 0,0 UV-I 0 W/m -6,7 C -3,1 C 12,9 km/h (3 Bft) 100 %
20.01.2024 19:40 2,5 C -0,8 C 2,8 C 3,9 C -2,2 C -0,8 C -0,7 C -4,4 C -4,4 C 0,0 C 0,0 C 1,1 C 67 % 64 % 56 % 0 lf 2 lf 200 cb 113 cb 30 cb 13 cb 1032,4 hPa 0,0 mm 4,8 km/h (1 Bft) NW 315 0 min 0 min 0,000 mm 0,0 UV-I 0 W/m -6,7 C -2,4 C 12,9 km/h (3 Bft) 100 %
20.01.2024 19:35 2,5 C -0,8 C 2,8 C 3,9 C -2,2 C -0,8 C -0,7 C -4,4 C -4,4 C 0,0 C 0,0 C 1,1 C 67 % 65 % 56 % 0 lf 3 lf 200 cb 113 cb 30 cb 13 cb 1032,4 hPa 0,0 mm 4,8 km/h (1 Bft) NW 315 0 min 0 min 0,000 mm 0,0 UV-I 0 W/m -6,5 C -2,4 C 9,7 km/h (2 Bft) 98 %
20.01.2024 19:30 2,5 C -0,8 C 2,8 C 3,9 C -2,2 C -0,9 C -0,8 C -4,4 C -4,4 C 0,0 C 0,0 C 1,1 C 67 % 65 % 56 % 0 lf 2 lf 200 cb 113 cb 30 cb 13 cb 1032,3 hPa 0,0 mm 6,4 km/h (2 Bft) W-NW 292 0 min 0 min 0,000 mm 0,0 UV-I 0 W/m -6,5 C -3,1 C 11,3 km/h (2 Bft) 98 %
20.01.2024 19:25 2,5 C -0,9 C 2,8 C 3,9 C -2,2 C -1,2 C -0,9 C -5,0 C -5,0 C 0,0 C 0,0 C 1,1 C 67 % 65 % 55 % 0 lf 3 lf 200 cb 113 cb 30 cb 13 cb 1032,3 hPa 0,0 mm 3,2 km/h (1 Bft) NW 315 0 min 0 min 0,000 mm 0,0 UV-I 0 W/m -6,6 C -0,9 C 9,7 km/h (2 Bft) 98 %
20.01.2024 19:20 2,5 C -1,2 C 2,8 C 3,9 C -2,2 C -1,4 C -1,2 C -5,0 C -5,0 C 0,0 C 0,0 C 1,1 C 67 % 66 % 55 % 0 lf 2 lf 200 cb 113 cb 30 cb 13 cb 1032,3 hPa 0,0 mm 4,8 km/h (1 Bft) W-NW 292 0 min 0 min 0,000 mm 0,0 UV-I 0 W/m -6,7 C -2,9 C 11,3 km/h (2 Bft) 97 %
20.01.2024 19:15 2,5 C -1,4 C 2,8 C 3,9 C -2,2 C -1,6 C -1,4 C -5,0 C -5,0 C 0,0 C 0,0 C 1,1 C 67 % 66 % 55 % 0 lf 3 lf 200 cb 113 cb 30 cb 13 cb 1032,2 hPa 0,0 mm 3,2 km/h (1 Bft) W 270 0 min 0 min 0,000 mm 0,0 UV-I 0 W/m -6,9 C -1,4 C 9,7 km/h (2 Bft) 97 %
20.01.2024 19:10 2,5 C -1,6 C 2,8 C 3,9 C -2,2 C -1,7 C -1,5 C -5,0 C -5,0 C 0,0 C 0,0 C 1,1 C 67 % 66 % 55 % 0 lf 2 lf 200 cb 113 cb 30 cb 13 cb 1032,3 hPa 0,0 mm 3,2 km/h (1 Bft) W 270 0 min 0 min 0,000 mm 0,0 UV-I 0 W/m -7,1 C -1,6 C 9,7 km/h (2 Bft) 98 %
20.01.2024 19:05 2,5 C -1,5 C 2,8 C 3,9 C -2,2 C -1,5 C -1,2 C -5,0 C -5,0 C 0,0 C 0,0 C 1,1 C 67 % 66 % 55 % 0 lf 2 lf 200 cb 113 cb 30 cb 13 cb 1032,2 hPa 0,0 mm 1,6 km/h (1 Bft) N-NW 337 0 min 0 min 0,000 mm 0,0 UV-I 0 W/m -7,0 C -1,5 C 4,8 km/h (1 Bft) 97 %
20.01.2024 19:00 2,5 C -1,2 C 2,8 C 3,9 C -2,2 C -1,2 C -1,1 C -5,0 C -5,0 C 0,0 C 0,0 C 1,1 C 67 % 65 % 56 % 0 lf 2 lf 200 cb 113 cb 30 cb 13 cb 1032,1 hPa 0,0 mm 1,6 km/h (1 Bft) W 270 0 min 0 min 0,025 mm 0,0 UV-I 0 W/m -6,9 C -1,2 C 4,8 km/h (1 Bft) 99 %
20.01.2024 18:55 2,5 C -1,0 C 2,8 C 3,9 C -2,2 C -1,1 C -1,0 C -5,0 C -5,0 C 0,0 C 0,0 C 1,1 C 67 % 65 % 56 % 0 lf 2 lf 200 cb 113 cb 30 cb 13 cb 1032,1 hPa 0,0 mm 4,8 km/h (1 Bft) NW 315 0 min 0 min 0,000 mm 0,0 UV-I 0 W/m -6,7 C -2,6 C 12,9 km/h (3 Bft) 97 %
20.01.2024 18:50 2,5 C -1,1 C 2,8 C 3,9 C -2,2 C -1,1 C -1,0 C -5,0 C -5,0 C 0,0 C 0,0 C 1,1 C 67 % 65 % 57 % 0 lf 2 lf 200 cb 113 cb 30 cb 13 cb 1032,2 hPa 0,0 mm 1,6 km/h (1 Bft) W-NW 292 0 min 0 min 0,000 mm 0,0 UV-I 0 W/m -6,8 C -1,1 C 4,8 km/h (1 Bft) 96 %
20.01.2024 18:45 2,6 C -1,1 C 2,8 C 3,9 C -2,8 C -1,2 C -1,1 C -5,6 C -5,6 C 0,0 C 0,0 C 1,1 C 67 % 66 % 57 % 0 lf 2 lf 200 cb 113 cb 30 cb 13 cb 1032,2 hPa 0,0 mm 4,8 km/h (1 Bft) N-NW 337 0 min 0 min 0,000 mm 0,0 UV-I 0 W/m -6,6 C -2,7 C 12,9 km/h (3 Bft) 97 %
20.01.2024 18:40 2,5 C -1,2 C 2,8 C 3,9 C -2,8 C -1,4 C -1,2 C -5,6 C -5,6 C 0,0 C 0,0 C 1,1 C 67 % 67 % 57 % 0 lf 2 lf 200 cb 114 cb 30 cb 13 cb 1032,1 hPa 0,0 mm 4,8 km/h (1 Bft) W-NW 292 0 min 0 min 0,000 mm 0,0 UV-I 0 W/m -6,5 C -2,9 C 9,7 km/h (2 Bft) 98 %
20.01.2024 18:35 2,6 C -1,4 C 2,8 C 3,9 C -2,8 C -1,6 C -1,4 C -5,6 C -5,6 C 0,0 C 0,0 C 1,1 C 67 % 67 % 57 % 0 lf 2 lf 200 cb 114 cb 30 cb 13 cb 1032,1 hPa 0,0 mm 4,8 km/h (1 Bft) W-NW 292 0 min 0 min 0,000 mm 0,0 UV-I 0 W/m -6,7 C -3,1 C 12,9 km/h (3 Bft) 100 %
20.01.2024 18:30 2,6 C -1,6 C 2,8 C 3,9 C -2,8 C -1,9 C -1,6 C -6,1 C -6,1 C 0,0 C 0,0 C 1,1 C 67 % 68 % 57 % 0 lf 2 lf 200 cb 114 cb 30 cb 13 cb 1032,0 hPa 0,0 mm 6,4 km/h (2 Bft) W 270 0 min 0 min 0,000 mm 0,0 UV-I 0 W/m -6,7 C -4,0 C 14,5 km/h (3 Bft) 99 %
20.01.2024 18:25 2,6 C -1,9 C 2,8 C 3,9 C -2,8 C -1,9 C -1,8 C -6,1 C -6,1 C 0,0 C 0,0 C 1,1 C 67 % 68 % 57 % 0 lf 2 lf 200 cb 114 cb 30 cb 13 cb 1032,0 hPa 0,0 mm 3,2 km/h (1 Bft) W 270 0 min 0 min 0,000 mm 0,0 UV-I 0 W/m -7,0 C -1,9 C 8,0 km/h (2 Bft) 97 %
20.01.2024 18:20 2,6 C -1,8 C 2,8 C 3,9 C -2,8 C -1,8 C -1,8 C -6,1 C -6,1 C 0,0 C 0,0 C 1,1 C 67 % 68 % 57 % 0 lf 2 lf 200 cb 114 cb 30 cb 13 cb 1031,9 hPa 0,0 mm 4,8 km/h (1 Bft) W 270 0 min 0 min 0,000 mm 0,0 UV-I 0 W/m -6,9 C -3,5 C 11,3 km/h (2 Bft) 97 %
20.01.2024 18:15 2,6 C -1,8 C 2,8 C 3,9 C -2,8 C -1,8 C -1,6 C -6,1 C -6,1 C 0,0 C 0,0 C 1,1 C 67 % 68 % 58 % 0 lf 2 lf 200 cb 114 cb 30 cb 13 cb 1031,9 hPa 0,0 mm 8,0 km/h (2 Bft) W-SW 247 0 min 0 min 0,000 mm 0,0 UV-I 0 W/m -6,9 C -4,9 C 16,1 km/h (3 Bft) 99 %
20.01.2024 18:10 2,6 C -1,6 C 2,8 C 3,9 C -2,8 C -1,6 C -1,3 C -6,1 C -6,1 C 0,0 C 0,0 C 1,1 C 67 % 68 % 59 % 0 lf 2 lf 200 cb 115 cb 30 cb 13 cb 1031,8 hPa 0,0 mm 9,7 km/h (2 Bft) W-SW 247 0 min 0 min 0,000 mm 0,0 UV-I 0 W/m -6,7 C -5,1 C 16,1 km/h (3 Bft) 97 %
20.01.2024 18:05 2,6 C -1,3 C 2,8 C 3,9 C -2,8 C -1,3 C -1,1 C -6,1 C -6,1 C 0,0 C 0,0 C 1,1 C 67 % 68 % 59 % 0 lf 2 lf 200 cb 115 cb 30 cb 13 cb 1031,9 hPa 0,0 mm 9,7 km/h (2 Bft) W-SW 247 0 min 0 min 0,000 mm 0,0 UV-I 0 W/m -6,4 C -4,8 C 14,5 km/h (3 Bft) 100 %
20.01.2024 18:00 2,6 C -1,1 C 2,8 C 3,9 C -3,3 C -1,4 C -1,1 C -6,1 C -6,1 C 0,0 C 0,0 C 1,1 C 67 % 69 % 60 % 0 lf 2 lf 200 cb 115 cb 30 cb 13 cb 1031,8 hPa 0,0 mm 12,9 km/h (3 Bft) W-SW 247 0 min 0 min 0,025 mm 0,0 UV-I 0 W/m -6,0 C -5,3 C 25,7 km/h (4 Bft) 99 %
20.01.2024 17:55 2,6 C -1,4 C 2,8 C 3,9 C -3,3 C -1,6 C -1,4 C -6,1 C -6,1 C 0,0 C 0,0 C 1,1 C 67 % 70 % 60 % 0 lf 2 lf 200 cb 115 cb 30 cb 13 cb 1031,7 hPa 0,0 mm 11,3 km/h (2 Bft) W-SW 247 0 min 0 min 0,000 mm 0,0 UV-I 0 W/m -6,1 C -5,3 C 17,7 km/h (3 Bft) 100 %
20.01.2024 17:50 2,7 C -1,5 C 2,8 C 3,9 C -3,3 C -1,8 C -1,4 C -6,1 C -6,1 C 0,0 C 0,0 C 1,1 C 67 % 70 % 60 % 0 lf 2 lf 200 cb 115 cb 30 cb 13 cb 1031,6 hPa 0,0 mm 9,7 km/h (2 Bft) W-SW 247 0 min 0 min 0,000 mm 0,0 UV-I 0 W/m -6,2 C -5,0 C 24,1 km/h (4 Bft) 100 %
20.01.2024 17:45 2,7 C -1,8 C 2,8 C 3,9 C -3,3 C -2,0 C -1,8 C -6,1 C -6,1 C 0,0 C 0,0 C 1,1 C 67 % 71 % 60 % 0 lf 2 lf 200 cb 115 cb 30 cb 13 cb 1031,6 hPa 0,0 mm 9,7 km/h (2 Bft) W-SW 247 0 min 0 min 0,000 mm 0,0 UV-I 0 W/m -6,3 C -5,4 C 16,1 km/h (3 Bft) 97 %
20.01.2024 17:40 2,7 C -2,0 C 2,8 C 3,9 C -3,3 C -2,1 C -1,9 C -6,1 C -6,1 C 0,0 C 0,0 C 1,1 C 67 % 72 % 60 % 0 lf 2 lf 200 cb 115 cb 30 cb 13 cb 1031,6 hPa 0,0 mm 6,4 km/h (2 Bft) W-SW 247 0 min 0 min 0,000 mm 0,0 UV-I 0 W/m -6,4 C -4,5 C 12,9 km/h (3 Bft) 99 %
20.01.2024 17:35 2,7 C -2,0 C 2,8 C 3,9 C -3,3 C -2,1 C -1,9 C -6,1 C -6,1 C 0,0 C 0,0 C 1,1 C 67 % 72 % 60 % 0 lf 2 lf 200 cb 115 cb 30 cb 13 cb 1031,5 hPa 0,0 mm 3,2 km/h (1 Bft) N-NW 337 0 min 0 min 0,000 mm 0,0 UV-I 0 W/m -6,4 C -2,0 C 8,0 km/h (2 Bft) 98 %
20.01.2024 17:30 2,7 C -2,1 C 2,8 C 3,9 C -3,3 C -2,2 C -2,0 C -6,1 C -6,1 C 0,0 C 0,0 C 1,1 C 67 % 72 % 59 % 0 lf 2 lf 200 cb 115 cb 30 cb 13 cb 1031,6 hPa 0,0 mm 8,0 km/h (2 Bft) W-SW 247 0 min 0 min 0,000 mm 0,0 UV-I 0 W/m -6,5 C -5,2 C 17,7 km/h (3 Bft) 100 %
20.01.2024 17:25 2,7 C -2,2 C 2,8 C 3,9 C -3,3 C -2,2 C -2,1 C -6,1 C -6,1 C 0,0 C 0,0 C 1,1 C 67 % 73 % 58 % 0 lf 2 lf 200 cb 116 cb 30 cb 13 cb 1031,4 hPa 0,0 mm 4,8 km/h (1 Bft) SW 225 0 min 0 min 0,000 mm 0,0 UV-I 0 W/m -6,4 C -4,0 C 16,1 km/h (3 Bft) 100 %
20.01.2024 17:20 2,7 C -2,1 C 2,8 C 3,9 C -3,3 C -2,3 C -2,1 C -6,1 C -6,1 C 0,0 C 0,0 C 1,1 C 67 % 73 % 58 % 0 lf 1 lf 200 cb 116 cb 30 cb 13 cb 1031,6 hPa 0,0 mm 4,8 km/h (1 Bft) SW 225 0 min 0 min 0,000 mm 0,0 UV-I 0 W/m -6,3 C -3,9 C 11,3 km/h (2 Bft) 98 %
20.01.2024 17:15 2,7 C -2,3 C 2,8 C 3,9 C -3,3 C -2,4 C -2,2 C -6,1 C -6,1 C 0,0 C 0,0 C 1,1 C 67 % 73 % 57 % 0 lf 2 lf 200 cb 116 cb 30 cb 13 cb 1031,4 hPa 0,0 mm 3,2 km/h (1 Bft) W 270 0 min 0 min 0,000 mm 0,0 UV-I 0 W/m -6,5 C -2,3 C 4,8 km/h (1 Bft) 98 %
20.01.2024 17:10 2,8 C -2,3 C 2,8 C 3,9 C -2,8 C -2,4 C -2,2 C -6,1 C -6,1 C 0,0 C 0,0 C 1,1 C 66 % 73 % 57 % 0 lf 2 lf 200 cb 116 cb 30 cb 13 cb 1031,3 hPa 0,0 mm 1,6 km/h (1 Bft) W 270 0 min 0 min 0,000 mm 0,0 UV-I 0 W/m -6,5 C -2,3 C 3,2 km/h (1 Bft) 97 %
20.01.2024 17:05 2,8 C -2,5 C 2,8 C 3,9 C -2,8 C -2,6 C -2,4 C -6,1 C -6,1 C 0,0 C 0,0 C 1,1 C 66 % 73 % 57 % 0 lf 2 lf 200 cb 117 cb 30 cb 13 cb 1031,4 hPa 0,0 mm 3,2 km/h (1 Bft) W 270 0 min 0 min 0,000 mm 0,0 UV-I 0 W/m -6,7 C -2,5 C 6,4 km/h (2 Bft) 100 %
20.01.2024 17:00 2,8 C -2,5 C 2,8 C 3,9 C -2,8 C -2,5 C -2,4 C -6,1 C -6,1 C 0,0 C 0,0 C 1,1 C 66 % 73 % 56 % 0 lf 2 lf 200 cb 117 cb 30 cb 13 cb 1031,4 hPa 0,0 mm 4,8 km/h (1 Bft) W 270 0 min 0 min 0,025 mm 0,0 UV-I 0 W/m -6,7 C -4,3 C 11,3 km/h (2 Bft) 100 %
_ Min-Zeit 10:00 00:50 16:30 16:30 04:00 00:50 02:35 04:30 04:30 16:30 16:30 16:30 16:30 13:40 12:15 16:30 04:00 16:30 00:20 16:30 16:30 15:45 - 21:45 - - - - - - - 03:45 01:25 20:55 13:15
Minimum _ 0,6 C -9,3 C 2,2 C 3,9 C -9,4 C -9,3 C -9,1 C -8,3 C -8,3 C 0,0 C 0,0 C 1,1 C 63 % 50 % 39 % 0 lf 0 lf 200 cb 113 cb 30 cb 13 cb 1026,3 hPa - 0,0 km/h (0 Bft) - - - - - - - -12,6 C -15,0 C 1,6 km/h (1 Bft) 91 %
_ Max-Zeit 17:10 12:20 09:25 16:30 14:00 12:20 12:20 12:45 12:45 16:30 16:30 16:30 23:05 01:35 02:55 16:30 14:00 16:30 11:25 16:30 16:30 22:45 16:30 15:35 - - 15:05 16:30 11:00 12:10 10:55 18:00 20:05 15:55 16:30
Maximum _ 2,8 C 0,9 C 2,8 C 3,9 C 0,6 C 0,7 C 0,9 C 0,0 C 0,0 C 0,0 C 0,0 C 1,1 C 67 % 80 % 62 % 0 lf 11 lf 200 cb 136 cb 30 cb 13 cb 1033,1 hPa 0,0 mm 33,8 km/h
S-SO (5 Bft)
- - 5 min 0 min 0,152 mm 0,6 UV-I 339 W/m -6,0 C -0,9 C 56,3 km/h
S-SO (7 Bft)
100 %
Durchschnitt _ 1,6 C -3,5 C 2,6 C 3,9 C -3,9 C -3,6 C -3,4 C -4,9 C -4,9 C 0,0 C 0,0 C 1,1 C 65 % 67 % 54 % 0 lf 2 lf 200 cb 122 cb 30 cb 13 cb 1030,9 hPa #0,0 mm 11,3 km/h (2 Bft) SO - #4:50 h #0 min. #0,962 mm 0,5 UV-I 64 W/m -8,8 C -7,3 C 20,0 km/h (4 Bft) 99 %